Time,TemperatureF,DewpointF,PressureIn,WindDirection,WindDirectionDegrees,WindSpeedMPH,WindSpeedGustMPH,Humidity,HourlyPrecipIn,Conditions,Clouds,dailyrainin,SoftwareType,DateUTC
2013-04-14 00:00:00,40.7,35.0,30.02,WNW,289,0.0,0.0,80,0.00,,,0.00,Wunderground v.1.15,2013-04-14 04:00:00,
2013-04-14 00:02:00,40.6,34.9,30.02,WNW,289,0.0,0.0,80,0.00,,,0.00,Wunderground v.1.15,2013-04-14 04:02:00,
2013-04-14 00:04:00,40.6,35.2,30.02,WNW,289,0.0,0.0,81,0.00,,,0.00,Wunderground v.1.15,2013-04-14 04:04:00,
2013-04-14 00:07:00,40.4,35.0,30.02,WNW,289,0.0,0.0,81,0.00,,,0.00,Wunderground v.1.15,2013-04-14 04:07:00,
2013-04-14 00:09:00,40.3,34.9,30.02,WNW,289,0.0,0.0,81,0.00,,,0.00,Wunderground v.1.15,2013-04-14 04:09:00,
2013-04-14 00:10:00,40.1,34.7,30.02,WNW,289,0.0,0.0,81,0.00,,,0.00,Wunderground v.1.15,2013-04-14 04:10:00,
2013-04-14 00:13:00,40.0,34.6,30.02,WNW,289,0.0,0.0,81,0.00,,,0.00,Wunderground v.1.15,2013-04-14 04:13:00,
2013-04-14 00:15:00,40.0,34.6,30.02,WNW,289,0.0,0.0,81,0.00,,,0.00,Wunderground v.1.15,2013-04-14 04:15:00,
2013-04-14 00:17:00,40.0,34.9,30.02,WNW,289,0.0,0.0,82,0.00,,,0.00,Wunderground v.1.15,2013-04-14 04:17:00,
2013-04-14 00:20:00,40.0,34.9,30.02,WNW,289,0.0,0.0,82,0.00,,,0.00,Wunderground v.1.15,2013-04-14 04:20:00,
2013-04-14 00:21:00,39.8,34.8,30.02,WNW,289,0.0,0.0,82,0.00,,,0.00,Wunderground v.1.15,2013-04-14 04:21:00,
2013-04-14 00:25:00,39.7,34.7,30.02,WNW,289,0.0,0.0,82,0.00,,,0.00,Wunderground v.1.15,2013-04-14 04:25:00,
2013-04-14 00:26:00,39.7,35.0,30.02,WNW,289,0.0,0.0,83,0.00,,,0.00,Wunderground v.1.15,2013-04-14 04:26:00,
2013-04-14 00:27:00,39.7,35.0,30.02,WNW,289,0.0,0.0,83,0.00,,,0.00,Wunderground v.1.15,2013-04-14 04:27:00,
2013-04-14 00:31:00,39.8,35.1,30.02,WNW,289,0.0,0.0,83,0.00,,,0.00,Wunderground v.1.15,2013-04-14 04:31:00,
2013-04-14 00:32:00,39.8,35.1,30.02,WNW,289,0.0,0.0,83,0.00,,,0.00,Wunderground v.1.15,2013-04-14 04:32:00,
2013-04-14 00:33:00,39.8,35.1,30.02,WNW,289,0.0,0.0,83,0.00,,,0.00,Wunderground v.1.15,2013-04-14 04:33:00,
2013-04-14 00:37:00,40.0,34.9,30.02,WNW,289,0.0,0.0,82,0.00,,,0.00,Wunderground v.1.15,2013-04-14 04:37:00,
2013-04-14 00:38:00,40.0,34.9,30.02,WNW,289,0.0,0.0,82,0.00,,,0.00,Wunderground v.1.15,2013-04-14 04:38:00,
2013-04-14 00:39:00,40.0,34.9,30.02,WNW,289,0.0,0.0,82,0.00,,,0.00,Wunderground v.1.15,2013-04-14 04:39:00,
2013-04-14 00:40:00,40.0,34.9,30.02,WNW,289,0.0,0.0,82,0.00,,,0.00,Wunderground v.1.15,2013-04-14 04:40:00,
2013-04-14 00:43:00,39.8,34.8,30.02,WNW,289,0.0,0.0,82,0.00,,,0.00,Wunderground v.1.15,2013-04-14 04:43:00,
2013-04-14 00:45:00,39.8,34.8,30.02,WNW,289,0.0,0.0,82,0.00,,,0.00,Wunderground v.1.15,2013-04-14 04:45:00,
2013-04-14 00:47:00,39.8,34.8,30.02,WNW,289,0.0,0.0,82,0.00,,,0.00,Wunderground v.1.15,2013-04-14 04:47:00,
2013-04-14 00:50:00,39.7,34.7,30.02,WNW,289,0.0,0.0,82,0.00,,,0.00,Wunderground v.1.15,2013-04-14 04:50:00,
2013-04-14 00:51:00,39.7,34.7,30.02,WNW,289,0.0,0.0,82,0.00,,,0.00,Wunderground v.1.15,2013-04-14 04:51:00,
2013-04-14 00:52:00,39.7,34.7,30.02,WNW,289,0.0,0.0,82,0.00,,,0.00,Wunderground v.1.15,2013-04-14 04:52:00,
2013-04-14 00:53:00,39.7,34.7,30.02,WNW,289,0.0,0.0,82,0.00,,,0.00,Wunderground v.1.15,2013-04-14 04:53:00,
2013-04-14 00:57:00,39.4,34.4,30.02,WNW,289,0.0,0.0,82,0.00,,,0.00,Wunderground v.1.15,2013-04-14 04:57:00,
2013-04-14 00:58:00,39.4,34.4,30.02,WNW,289,0.0,0.0,82,0.00,,,0.00,Wunderground v.1.15,2013-04-14 04:58:00,
2013-04-14 00:59:00,39.3,34.3,30.02,WNW,289,0.0,0.0,82,0.00,,,0.00,Wunderground v.1.15,2013-04-14 04:59:00,
2013-04-14 01:02:00,39.3,34.6,30.01,WNW,289,0.0,0.0,83,0.00,,,0.00,Wunderground v.1.15,2013-04-14 05:02:00,
2013-04-14 01:03:00,39.3,34.6,30.01,WNW,289,0.0,0.0,83,0.00,,,0.00,Wunderground v.1.15,2013-04-14 05:03:00,
2013-04-14 01:04:00,39.3,34.6,30.01,WNW,289,0.0,0.0,83,0.00,,,0.00,Wunderground v.1.15,2013-04-14 05:04:00,
2013-04-14 01:05:00,39.3,34.6,30.01,WNW,289,0.0,0.0,83,0.00,,,0.00,Wunderground v.1.15,2013-04-14 05:05:00,
2013-04-14 01:10:00,39.1,34.4,30.01,WNW,289,0.0,0.0,83,0.00,,,0.00,Wunderground v.1.15,2013-04-14 05:10:00,
2013-04-14 01:11:00,39.1,34.4,30.01,WNW,289,0.0,0.0,83,0.00,,,0.00,Wunderground v.1.15,2013-04-14 05:11:00,
2013-04-14 01:13:00,39.1,34.7,30.01,WNW,289,0.0,0.0,84,0.00,,,0.00,Wunderground v.1.15,2013-04-14 05:13:00,
2013-04-14 01:14:00,39.3,34.9,30.01,WNW,289,0.0,0.0,84,0.00,,,0.00,Wunderground v.1.15,2013-04-14 05:14:00,
2013-04-14 01:17:00,39.6,35.2,30.01,WNW,289,0.0,0.0,84,0.00,,,0.00,Wunderground v.1.15,2013-04-14 05:17:00,
2013-04-14 01:19:00,39.7,35.3,30.01,WNW,289,0.0,0.0,84,0.00,,,0.00,Wunderground v.1.15,2013-04-14 05:19:00,
2013-04-14 01:20:00,39.8,35.1,30.01,WNW,289,0.0,0.0,83,0.00,,,0.00,Wunderground v.1.15,2013-04-14 05:20:00,
2013-04-14 01:23:00,39.8,34.8,30.01,WNW,289,0.0,0.0,82,0.00,,,0.00,Wunderground v.1.15,2013-04-14 05:23:00,
2013-04-14 01:26:00,39.7,34.7,30.01,WNW,289,0.0,0.0,82,0.00,,,0.00,Wunderground v.1.15,2013-04-14 05:26:00,
2013-04-14 01:27:00,39.7,34.7,30.01,WNW,289,0.0,0.0,82,0.00,,,0.00,Wunderground v.1.15,2013-04-14 05:27:00,
2013-04-14 01:30:00,39.7,34.7,30.01,WNW,289,0.0,0.0,82,0.00,,,0.00,Wunderground v.1.15,2013-04-14 05:30:00,
2013-04-14 01:32:00,39.6,34.6,30.01,WNW,289,0.0,0.0,82,0.00,,,0.00,Wunderground v.1.15,2013-04-14 05:32:00,
2013-04-14 01:34:00,39.4,34.4,30.01,WNW,289,0.0,0.0,82,0.00,,,0.00,Wunderground v.1.15,2013-04-14 05:34:00,
2013-04-14 01:35:00,39.4,34.4,30.01,WNW,289,0.0,0.0,82,0.00,,,0.00,Wunderground v.1.15,2013-04-14 05:35:00,
2013-04-14 01:37:00,39.3,34.6,30.01,WNW,289,0.0,0.0,83,0.00,,,0.00,Wunderground v.1.15,2013-04-14 05:37:00,
2013-04-14 01:40:00,39.3,34.6,30.01,WNW,289,0.0,0.0,83,0.00,,,0.00,Wunderground v.1.15,2013-04-14 05:40:00,
2013-04-14 01:43:00,39.1,34.4,30.01,WNW,289,0.0,0.0,83,0.00,,,0.00,Wunderground v.1.15,2013-04-14 05:43:00,
2013-04-14 01:45:00,39.0,34.3,30.01,WNW,289,0.0,0.0,83,0.00,,,0.00,Wunderground v.1.15,2013-04-14 05:45:00,
2013-04-14 01:47:00,38.8,34.1,30.01,WNW,289,0.0,0.0,83,0.00,,,0.00,Wunderground v.1.15,2013-04-14 05:47:00,
2013-04-14 01:49:00,38.8,34.1,30.01,WNW,289,0.0,0.0,83,0.00,,,0.00,Wunderground v.1.15,2013-04-14 05:49:00,
2013-04-14 01:50:00,38.8,34.4,30.01,WNW,289,0.0,0.0,84,0.00,,,0.00,Wunderground v.1.15,2013-04-14 05:50:00,
2013-04-14 01:52:00,38.7,34.3,30.01,WNW,289,0.0,0.0,84,0.00,,,0.00,Wunderground v.1.15,2013-04-14 05:52:00,
2013-04-14 01:53:00,38.7,34.3,30.01,WNW,289,0.0,0.0,84,0.00,,,0.00,Wunderground v.1.15,2013-04-14 05:53:00,
2013-04-14 01:56:00,38.7,34.3,30.01,WNW,289,0.0,0.0,84,0.00,,,0.00,Wunderground v.1.15,2013-04-14 05:56:00,
2013-04-14 01:59:00,38.8,34.4,30.01,WNW,289,0.0,0.0,84,0.00,,,0.00,Wunderground v.1.15,2013-04-14 05:59:00,
2013-04-14 02:00:00,38.8,34.4,30.01,WNW,289,0.0,0.0,84,0.00,,,0.00,Wunderground v.1.15,2013-04-14 06:00:00,
2013-04-14 02:05:00,38.8,34.4,30.01,WNW,289,0.0,0.0,84,0.00,,,0.00,Wunderground v.1.15,2013-04-14 06:05:00,
2013-04-14 02:06:00,38.7,34.3,30.01,WNW,289,0.0,0.0,84,0.00,,,0.00,Wunderground v.1.15,2013-04-14 06:06:00,
2013-04-14 02:07:00,38.7,34.3,30.01,WNW,289,0.0,0.0,84,0.00,,,0.00,Wunderground v.1.15,2013-04-14 06:07:00,
2013-04-14 02:10:00,38.5,34.1,30.01,WNW,289,0.0,0.0,84,0.00,,,0.00,Wunderground v.1.15,2013-04-14 06:10:00,
2013-04-14 02:12:00,38.5,34.4,30.01,WNW,289,0.0,0.0,85,0.00,,,0.00,Wunderground v.1.15,2013-04-14 06:12:00,
2013-04-14 02:13:00,38.7,34.6,30.01,WNW,289,0.0,0.0,85,0.00,,,0.00,Wunderground v.1.15,2013-04-14 06:13:00,
2013-04-14 02:15:00,38.7,34.6,30.01,WNW,289,0.0,0.0,85,0.00,,,0.00,Wunderground v.1.15,2013-04-14 06:15:00,
2013-04-14 02:16:00,38.7,34.3,30.01,WNW,289,0.0,0.0,84,0.00,,,0.00,Wunderground v.1.15,2013-04-14 06:16:00,
2013-04-14 02:18:00,38.5,34.1,30.01,WNW,289,0.0,0.0,84,0.00,,,0.00,Wunderground v.1.15,2013-04-14 06:18:00,
2013-04-14 02:19:00,38.4,34.0,30.01,WNW,289,0.0,0.0,84,0.00,,,0.00,Wunderground v.1.15,2013-04-14 06:19:00,
2013-04-14 02:21:00,38.4,34.3,30.01,WNW,289,0.0,0.0,85,0.00,,,0.00,Wunderground v.1.15,2013-04-14 06:21:00,
2013-04-14 02:22:00,38.4,34.3,30.01,WNW,289,0.0,0.0,85,0.00,,,0.00,Wunderground v.1.15,2013-04-14 06:22:00,
2013-04-14 02:26:00,38.3,34.2,30.01,WNW,289,0.0,0.0,85,0.00,,,0.00,Wunderground v.1.15,2013-04-14 06:26:00,
2013-04-14 02:28:00,38.1,34.0,30.01,WNW,289,0.0,0.0,85,0.00,,,0.00,Wunderground v.1.15,2013-04-14 06:28:00,
2013-04-14 02:30:00,38.1,34.0,30.01,WNW,289,0.0,0.0,85,0.00,,,0.00,Wunderground v.1.15,2013-04-14 06:30:00,
2013-04-14 02:32:00,38.1,34.0,30.01,WNW,289,0.0,0.0,85,0.00,,,0.00,Wunderground v.1.15,2013-04-14 06:32:00,
2013-04-14 02:33:00,38.1,34.0,30.01,WNW,289,0.0,0.0,85,0.00,,,0.00,Wunderground v.1.15,2013-04-14 06:33:00,
2013-04-14 02:36:00,38.1,34.0,30.01,WNW,289,0.0,0.0,85,0.00,,,0.00,Wunderground v.1.15,2013-04-14 06:36:00,
2013-04-14 02:37:00,38.1,34.0,30.01,WNW,289,0.0,0.0,85,0.00,,,0.00,Wunderground v.1.15,2013-04-14 06:37:00,
2013-04-14 02:40:00,38.1,34.0,30.01,WNW,289,0.0,0.0,85,0.00,,,0.00,Wunderground v.1.15,2013-04-14 06:40:00,
2013-04-14 02:41:00,38.0,33.9,30.01,WNW,289,0.0,0.0,85,0.00,,,0.00,Wunderground v.1.15,2013-04-14 06:41:00,
2013-04-14 02:42:00,38.0,33.9,30.01,WNW,289,0.0,0.0,85,0.00,,,0.00,Wunderground v.1.15,2013-04-14 06:42:00,
2013-04-14 02:47:00,37.8,34.0,30.00,WNW,289,0.0,0.0,86,0.00,,,0.00,Wunderground v.1.15,2013-04-14 06:47:00,
2013-04-14 02:48:00,37.8,34.0,30.00,WNW,289,0.0,0.0,86,0.00,,,0.00,Wunderground v.1.15,2013-04-14 06:48:00,
2013-04-14 02:49:00,37.8,34.0,30.00,WNW,289,0.0,0.0,86,0.00,,,0.00,Wunderground v.1.15,2013-04-14 06:49:00,
2013-04-14 02:52:00,38.0,34.2,30.00,WNW,289,0.0,0.0,86,0.00,,,0.00,Wunderground v.1.15,2013-04-14 06:52:00,
2013-04-14 02:54:00,38.0,34.5,30.00,WNW,289,0.0,0.0,87,0.00,,,0.00,Wunderground v.1.15,2013-04-14 06:54:00,
2013-04-14 02:56:00,38.1,34.3,30.00,WNW,289,0.0,0.0,86,0.00,,,0.00,Wunderground v.1.15,2013-04-14 06:56:00,
2013-04-14 03:01:00,38.1,34.3,30.00,WNW,289,0.0,0.0,86,0.00,,,0.00,Wunderground v.1.15,2013-04-14 07:01:00,
2013-04-14 03:03:00,38.0,34.2,30.00,WNW,289,0.0,0.0,86,0.00,,,0.00,Wunderground v.1.15,2013-04-14 07:03:00,
2013-04-14 03:05:00,38.0,34.2,30.00,WNW,289,0.0,0.0,86,0.00,,,0.00,Wunderground v.1.15,2013-04-14 07:05:00,
2013-04-14 03:06:00,37.8,34.0,30.00,WNW,289,0.0,0.0,86,0.00,,,0.00,Wunderground v.1.15,2013-04-14 07:06:00,
2013-04-14 03:08:00,37.8,34.0,30.00,WNW,289,0.0,0.0,86,0.00,,,0.00,Wunderground v.1.15,2013-04-14 07:08:00,
2013-04-14 03:10:00,37.7,33.9,30.00,WNW,289,0.0,0.0,86,0.00,,,0.00,Wunderground v.1.15,2013-04-14 07:10:00,
2013-04-14 03:13:00,37.5,33.7,30.00,WNW,289,0.0,0.0,86,0.00,,,0.00,Wunderground v.1.15,2013-04-14 07:13:00,
2013-04-14 03:14:00,37.5,33.7,30.00,WNW,289,0.0,0.0,86,0.00,,,0.00,Wunderground v.1.15,2013-04-14 07:14:00,
2013-04-14 03:17:00,37.5,34.0,30.00,WNW,289,0.0,0.0,87,0.00,,,0.00,Wunderground v.1.15,2013-04-14 07:17:00,
2013-04-14 03:20:00,37.7,34.2,30.00,WNW,289,0.0,0.0,87,0.00,,,0.00,Wunderground v.1.15,2013-04-14 07:20:00,
2013-04-14 03:22:00,37.7,34.2,30.00,WNW,289,0.0,0.0,87,0.00,,,0.00,Wunderground v.1.15,2013-04-14 07:22:00,
2013-04-14 03:24:00,37.7,34.2,30.00,WNW,289,0.0,0.0,87,0.00,,,0.00,Wunderground v.1.15,2013-04-14 07:24:00,
2013-04-14 03:26:00,37.7,34.2,30.00,WNW,289,0.0,0.0,87,0.00,,,0.00,Wunderground v.1.15,2013-04-14 07:26:00,
2013-04-14 03:27:00,37.7,34.2,30.00,WNW,289,0.0,0.0,87,0.00,,,0.00,Wunderground v.1.15,2013-04-14 07:27:00,
2013-04-14 03:29:00,37.7,34.2,30.00,WNW,289,0.0,0.0,87,0.00,,,0.00,Wunderground v.1.15,2013-04-14 07:29:00,
2013-04-14 03:32:00,37.7,34.2,29.99,WNW,289,0.0,0.0,87,0.00,,,0.00,Wunderground v.1.15,2013-04-14 07:32:00,
2013-04-14 03:35:00,37.5,34.0,29.99,WNW,289,0.0,0.0,87,0.00,,,0.00,Wunderground v.1.15,2013-04-14 07:35:00,
2013-04-14 03:36:00,37.5,34.0,29.99,WNW,289,0.0,0.0,87,0.00,,,0.00,Wunderground v.1.15,2013-04-14 07:36:00,
2013-04-14 03:40:00,37.7,34.5,29.99,WNW,289,0.0,0.0,88,0.00,,,0.00,Wunderground v.1.15,2013-04-14 07:40:00,
2013-04-14 03:41:00,37.7,34.5,29.99,WNW,289,0.0,0.0,88,0.00,,,0.00,Wunderground v.1.15,2013-04-14 07:41:00,
2013-04-14 03:42:00,37.7,34.5,29.99,WNW,289,0.0,0.0,88,0.00,,,0.00,Wunderground v.1.15,2013-04-14 07:42:00,
2013-04-14 03:48:00,38.0,34.8,30.00,WNW,289,0.0,0.0,88,0.00,,,0.00,Wunderground v.1.15,2013-04-14 07:48:00,
2013-04-14 03:49:00,38.0,34.8,30.00,WNW,289,0.0,0.0,88,0.00,,,0.00,Wunderground v.1.15,2013-04-14 07:49:00,
2013-04-14 03:50:00,38.0,34.8,30.00,WNW,289,0.0,0.0,88,0.00,,,0.00,Wunderground v.1.15,2013-04-14 07:50:00,
2013-04-14 03:53:00,38.1,34.9,30.00,WNW,289,0.0,0.0,88,0.00,,,0.00,Wunderground v.1.15,2013-04-14 07:53:00,
2013-04-14 03:54:00,38.3,35.3,30.00,WNW,289,0.0,0.0,89,0.00,,,0.00,Wunderground v.1.15,2013-04-14 07:54:00,
2013-04-14 03:58:00,38.4,35.4,30.00,WNW,289,0.0,0.0,89,0.00,,,0.00,Wunderground v.1.15,2013-04-14 07:58:00,
2013-04-14 04:00:00,38.7,35.7,30.02,NW,304,0.0,0.0,89,0.00,,,0.00,Wunderground v.1.15,2013-04-14 08:00:00,
2013-04-14 04:02:00,38.7,35.7,30.02,NW,311,0.0,0.0,89,0.00,,,0.00,Wunderground v.1.15,2013-04-14 08:02:00,
2013-04-14 04:03:00,38.8,35.8,30.02,NNW,333,0.0,0.0,89,0.00,,,0.00,Wunderground v.1.15,2013-04-14 08:03:00,
2013-04-14 04:06:00,39.1,36.1,30.02,NNW,339,0.0,0.0,89,0.00,,,0.00,Wunderground v.1.15,2013-04-14 08:06:00,
2013-04-14 04:08:00,39.3,36.3,30.02,NNW,339,0.0,0.0,89,0.00,,,0.00,Wunderground v.1.15,2013-04-14 08:08:00,
2013-04-14 04:09:00,39.4,36.4,30.02,NNW,339,0.0,0.0,89,0.00,,,0.00,Wunderground v.1.15,2013-04-14 08:09:00,
2013-04-14 04:10:00,39.4,36.4,30.02,NNW,339,0.0,0.0,89,0.00,,,0.00,Wunderground v.1.15,2013-04-14 08:10:00,
2013-04-14 04:14:00,39.7,36.4,30.02,NNW,339,0.0,0.0,88,0.00,,,0.00,Wunderground v.1.15,2013-04-14 08:14:00,
2013-04-14 04:16:00,39.7,36.4,30.02,NNW,339,0.0,0.0,88,0.00,,,0.00,Wunderground v.1.15,2013-04-14 08:16:00,
2013-04-14 04:17:00,39.8,36.5,30.02,NNW,339,0.0,0.0,88,0.00,,,0.00,Wunderground v.1.15,2013-04-14 08:17:00,
2013-04-14 04:21:00,40.0,36.7,30.02,NNW,339,0.0,0.0,88,0.00,,,0.00,Wunderground v.1.15,2013-04-14 08:21:00,
2013-04-14 04:25:00,40.0,36.7,30.02,NNW,339,0.0,0.0,88,0.00,,,0.00,Wunderground v.1.15,2013-04-14 08:25:00,
2013-04-14 04:26:00,40.1,36.8,30.02,NNW,339,0.0,0.0,88,0.00,,,0.00,Wunderground v.1.15,2013-04-14 08:26:00,
2013-04-14 04:27:00,40.1,36.8,30.02,NNW,339,0.0,0.0,88,0.00,,,0.00,Wunderground v.1.15,2013-04-14 08:27:00,
2013-04-14 04:30:00,40.1,36.8,30.02,NNW,339,0.0,0.0,88,0.00,,,0.00,Wunderground v.1.15,2013-04-14 08:30:00,
2013-04-14 04:33:00,40.3,37.0,30.02,NNW,339,0.0,0.0,88,0.00,,,0.00,Wunderground v.1.15,2013-04-14 08:33:00,
2013-04-14 04:34:00,40.3,37.0,30.02,NNW,339,0.0,0.0,88,0.00,,,0.00,Wunderground v.1.15,2013-04-14 08:34:00,
2013-04-14 04:40:00,40.4,37.1,30.02,NNW,339,0.0,0.0,88,0.00,,,0.00,Wunderground v.1.15,2013-04-14 08:40:00,
2013-04-14 04:41:00,40.4,37.1,30.02,NNW,339,0.0,0.0,88,0.00,,,0.00,Wunderground v.1.15,2013-04-14 08:41:00,
2013-04-14 04:42:00,40.4,37.1,30.02,NNW,339,0.0,0.0,88,0.00,,,0.00,Wunderground v.1.15,2013-04-14 08:42:00,
2013-04-14 04:44:00,40.4,37.1,30.02,NNW,339,0.0,0.0,88,0.00,,,0.00,Wunderground v.1.15,2013-04-14 08:44:00,
2013-04-14 04:49:00,40.6,37.3,30.01,NNW,339,0.0,0.0,88,0.00,,,0.00,Wunderground v.1.15,2013-04-14 08:49:00,
2013-04-14 04:50:00,40.6,37.3,30.01,NNW,339,0.0,0.0,88,0.00,,,0.00,Wunderground v.1.15,2013-04-14 08:50:00,
2013-04-14 04:54:00,40.6,37.3,30.01,NNW,339,0.0,0.0,88,0.00,,,0.00,Wunderground v.1.15,2013-04-14 08:54:00,
2013-04-14 04:55:00,40.6,37.3,30.01,NNW,339,0.0,0.0,88,0.00,,,0.00,Wunderground v.1.15,2013-04-14 08:55:00,
2013-04-14 04:56:00,40.7,37.4,30.01,NNW,339,0.0,0.0,88,0.00,,,0.00,Wunderground v.1.15,2013-04-14 08:56:00,
2013-04-14 05:00:00,40.6,37.3,30.01,NNW,339,0.0,0.0,88,0.00,,,0.00,Wunderground v.1.15,2013-04-14 09:00:00,
2013-04-14 05:01:00,40.6,37.3,30.01,NNW,339,0.0,0.0,88,0.00,,,0.00,Wunderground v.1.15,2013-04-14 09:01:00,
2013-04-14 05:02:00,40.6,37.3,30.01,NNW,339,0.0,0.0,88,0.00,,,0.00,Wunderground v.1.15,2013-04-14 09:02:00,
2013-04-14 05:04:00,40.6,37.3,30.01,NNW,339,0.0,0.0,88,0.00,,,0.00,Wunderground v.1.15,2013-04-14 09:04:00,
2013-04-14 05:07:00,40.4,37.1,30.01,NNW,339,0.0,0.0,88,0.00,,,0.00,Wunderground v.1.15,2013-04-14 09:07:00,
2013-04-14 05:09:00,40.4,37.1,30.01,NNW,339,0.0,0.0,88,0.00,,,0.00,Wunderground v.1.15,2013-04-14 09:09:00,
2013-04-14 05:13:00,40.3,37.0,30.01,NNW,339,0.0,0.0,88,0.00,,,0.00,Wunderground v.1.15,2013-04-14 09:13:00,
2013-04-14 05:14:00,40.3,37.0,30.01,NNW,339,0.0,0.0,88,0.00,,,0.00,Wunderground v.1.15,2013-04-14 09:14:00,
2013-04-14 05:17:00,40.3,37.0,30.01,NNW,339,0.0,0.0,88,0.00,,,0.00,Wunderground v.1.15,2013-04-14 09:17:00,
2013-04-14 05:18:00,40.3,37.0,30.01,NNW,339,0.0,0.0,88,0.00,,,0.00,Wunderground v.1.15,2013-04-14 09:18:00,
2013-04-14 05:20:00,40.3,37.0,30.01,NNW,339,0.0,0.0,88,0.00,,,0.00,Wunderground v.1.15,2013-04-14 09:20:00,
2013-04-14 05:23:00,40.1,36.8,30.01,NNW,339,0.0,0.0,88,0.00,,,0.00,Wunderground v.1.15,2013-04-14 09:23:00,
2013-04-14 05:24:00,40.1,36.8,30.01,NNW,339,0.0,0.0,88,0.00,,,0.00,Wunderground v.1.15,2013-04-14 09:24:00,
2013-04-14 05:26:00,40.1,36.8,30.01,NNW,339,0.0,0.0,88,0.00,,,0.00,Wunderground v.1.15,2013-04-14 09:26:00,
2013-04-14 05:28:00,40.0,36.7,30.01,NNW,339,0.0,0.0,88,0.00,,,0.00,Wunderground v.1.15,2013-04-14 09:28:00,
2013-04-14 05:31:00,40.0,36.7,30.00,NNW,339,0.0,0.0,88,0.00,,,0.00,Wunderground v.1.15,2013-04-14 09:31:00,
2013-04-14 05:34:00,39.8,36.5,30.00,NNW,339,0.0,0.0,88,0.00,,,0.00,Wunderground v.1.15,2013-04-14 09:34:00,
2013-04-14 05:36:00,39.7,36.4,30.00,NNW,339,0.0,0.0,88,0.00,,,0.00,Wunderground v.1.15,2013-04-14 09:36:00,
2013-04-14 05:40:00,39.7,36.4,30.00,NNW,339,0.0,0.0,88,0.00,,,0.00,Wunderground v.1.15,2013-04-14 09:40:00,
2013-04-14 05:42:00,39.7,36.4,30.00,NNW,339,0.0,0.0,88,0.00,,,0.00,Wunderground v.1.15,2013-04-14 09:42:00,
2013-04-14 05:43:00,39.7,36.4,30.00,NNW,339,0.0,0.0,88,0.00,,,0.00,Wunderground v.1.15,2013-04-14 09:43:00,
2013-04-14 05:47:00,39.6,36.3,29.99,NNW,339,0.0,0.0,88,0.00,,,0.00,Wunderground v.1.15,2013-04-14 09:47:00,
2013-04-14 05:48:00,39.6,36.3,29.99,NNW,339,0.0,0.0,88,0.00,,,0.00,Wunderground v.1.15,2013-04-14 09:48:00,
2013-04-14 05:49:00,39.4,36.1,29.99,NNW,339,0.0,0.0,88,0.00,,,0.00,Wunderground v.1.15,2013-04-14 09:49:00,
2013-04-14 05:51:00,39.4,36.1,29.99,NNW,339,0.0,0.0,88,0.00,,,0.00,Wunderground v.1.15,2013-04-14 09:51:00,
2013-04-14 05:55:00,39.3,36.0,29.99,NNW,339,0.0,0.0,88,0.00,,,0.00,Wunderground v.1.15,2013-04-14 09:55:00,
2013-04-14 05:56:00,39.3,36.0,29.99,NNW,339,0.0,0.0,88,0.00,,,0.00,Wunderground v.1.15,2013-04-14 09:56:00,
2013-04-14 05:58:00,39.3,36.0,29.99,NNW,339,0.0,0.0,88,0.00,,,0.00,Wunderground v.1.15,2013-04-14 09:58:00,
2013-04-14 06:02:00,39.1,36.1,29.99,NNW,339,0.0,0.0,89,0.00,,,0.00,Wunderground v.1.15,2013-04-14 10:02:00,
2013-04-14 06:04:00,39.1,36.1,29.99,NNW,339,0.0,0.0,89,0.00,,,0.00,Wunderground v.1.15,2013-04-14 10:04:00,
2013-04-14 06:05:00,39.1,36.1,29.99,NNW,339,0.0,0.0,89,0.00,,,0.00,Wunderground v.1.15,2013-04-14 10:05:00,
2013-04-14 06:06:00,39.1,36.1,29.99,NNW,339,0.0,0.0,89,0.00,,,0.00,Wunderground v.1.15,2013-04-14 10:06:00,
2013-04-14 06:08:00,39.0,36.0,29.99,NNW,339,0.0,0.0,89,0.00,,,0.00,Wunderground v.1.15,2013-04-14 10:08:00,
2013-04-14 06:10:00,39.0,36.0,29.99,NNW,339,0.0,0.0,89,0.00,,,0.00,Wunderground v.1.15,2013-04-14 10:10:00,
2013-04-14 06:11:00,39.0,36.0,29.99,NNW,339,0.0,0.0,89,0.00,,,0.00,Wunderground v.1.15,2013-04-14 10:11:00,
2013-04-14 06:14:00,38.7,35.7,29.99,NNW,339,0.0,0.0,89,0.00,,,0.00,Wunderground v.1.15,2013-04-14 10:14:00,
2013-04-14 06:15:00,38.7,35.7,29.98,NNW,339,0.0,0.0,89,0.00,,,0.00,Wunderground v.1.15,2013-04-14 10:15:00,
2013-04-14 06:17:00,38.7,35.7,29.98,NNW,339,0.0,0.0,89,0.00,,,0.00,Wunderground v.1.15,2013-04-14 10:17:00,
2013-04-14 06:18:00,38.7,35.7,29.98,NNW,340,0.0,0.0,89,0.00,,,0.00,Wunderground v.1.15,2013-04-14 10:18:00,
2013-04-14 06:23:00,39.3,36.3,29.98,East,88,1.0,1.0,89,0.00,,,0.00,Wunderground v.1.15,2013-04-14 10:23:00,
2013-04-14 06:24:00,39.3,36.3,29.98,East,88,1.0,1.0,89,0.00,,,0.00,Wunderground v.1.15,2013-04-14 10:24:00,
2013-04-14 06:28:00,39.7,36.4,29.98,ESE,112,1.0,1.0,88,0.00,,,0.00,Wunderground v.1.15,2013-04-14 10:28:00,
2013-04-14 06:29:00,39.8,36.5,29.98,ESE,112,1.0,1.0,88,0.00,,,0.00,Wunderground v.1.15,2013-04-14 10:29:00,
2013-04-14 06:30:00,39.8,36.5,29.98,ESE,113,1.0,2.0,88,0.00,,,0.00,Wunderground v.1.15,2013-04-14 10:30:00,
2013-04-14 06:32:00,40.0,36.4,29.98,ESE,113,1.0,2.0,87,0.00,,,0.00,Wunderground v.1.15,2013-04-14 10:32:00,
2013-04-14 06:33:00,40.1,36.5,29.98,ESE,113,1.0,2.0,87,0.00,,,0.00,Wunderground v.1.15,2013-04-14 10:33:00,
2013-04-14 06:36:00,40.3,36.4,29.98,ESE,113,2.0,2.0,86,0.00,,,0.00,Wunderground v.1.15,2013-04-14 10:36:00,
2013-04-14 06:37:00,40.3,36.4,29.98,ESE,112,1.0,2.0,86,0.00,,,0.00,Wunderground v.1.15,2013-04-14 10:37:00,
2013-04-14 06:39:00,40.4,36.5,29.98,ESE,114,1.0,2.0,86,0.00,,,0.00,Wunderground v.1.15,2013-04-14 10:39:00,
2013-04-14 06:40:00,40.6,36.4,29.98,ESE,114,1.0,1.0,85,0.00,,,0.00,Wunderground v.1.15,2013-04-14 10:40:00,
2013-04-14 06:42:00,40.7,36.5,29.98,ESE,114,1.0,1.0,85,0.00,,,0.00,Wunderground v.1.15,2013-04-14 10:42:00,
2013-04-14 06:46:00,40.8,36.6,29.97,ESE,114,0.0,1.0,85,0.00,,,0.00,Wunderground v.1.15,2013-04-14 10:46:00,
2013-04-14 06:47:00,41.0,36.5,29.97,ESE,113,0.0,2.0,84,0.00,,,0.00,Wunderground v.1.15,2013-04-14 10:47:00,
2013-04-14 06:49:00,41.1,36.6,29.97,ESE,113,0.0,2.0,84,0.00,,,0.00,Wunderground v.1.15,2013-04-14 10:49:00,
2013-04-14 06:51:00,41.3,36.8,29.97,ESE,113,0.0,1.0,84,0.00,,,0.00,Wunderground v.1.15,2013-04-14 10:51:00,
2013-04-14 06:52:00,41.4,36.9,29.97,ESE,113,1.0,1.0,84,0.00,,,0.00,Wunderground v.1.15,2013-04-14 10:52:00,
2013-04-14 06:54:00,41.6,36.8,29.97,ESE,113,1.0,1.0,83,0.00,,,0.00,Wunderground v.1.15,2013-04-14 10:54:00,
2013-04-14 06:57:00,41.7,36.6,29.97,ESE,113,1.0,2.0,82,0.00,,,0.00,Wunderground v.1.15,2013-04-14 10:57:00,
2013-04-14 06:58:00,41.7,36.6,29.97,ESE,113,1.0,2.0,82,0.00,,,0.00,Wunderground v.1.15,2013-04-14 10:58:00,
2013-04-14 07:02:00,41.7,36.6,29.98,SE,128,1.0,2.0,82,0.00,,,0.00,Wunderground v.1.15,2013-04-14 11:02:00,
2013-04-14 07:06:00,42.1,36.7,29.98,SE,126,2.0,5.0,81,0.00,,,0.00,Wunderground v.1.15,2013-04-14 11:06:00,
2013-04-14 07:08:00,42.4,37.0,29.98,ESE,117,3.0,6.0,81,0.00,,,0.00,Wunderground v.1.15,2013-04-14 11:08:00,
2013-04-14 07:09:00,42.4,37.0,29.98,SE,126,3.0,6.0,81,0.00,,,0.00,Wunderground v.1.15,2013-04-14 11:09:00,
2013-04-14 07:11:00,42.7,37.0,29.98,ESE,119,4.0,6.0,80,0.00,,,0.00,Wunderground v.1.15,2013-04-14 11:11:00,
2013-04-14 07:14:00,42.8,36.7,29.98,ESE,114,4.0,6.0,79,0.00,,,0.00,Wunderground v.1.15,2013-04-14 11:14:00,
2013-04-14 07:16:00,43.0,36.9,29.99,ESE,117,5.0,6.0,79,0.00,,,0.00,Wunderground v.1.15,2013-04-14 11:16:00,
2013-04-14 07:18:00,43.0,36.9,29.99,ESE,123,5.0,6.0,79,0.00,,,0.00,Wunderground v.1.15,2013-04-14 11:18:00,
2013-04-14 07:20:00,43.1,37.0,29.99,ESE,117,4.0,5.0,79,0.00,,,0.00,Wunderground v.1.15,2013-04-14 11:20:00,
2013-04-14 07:24:00,43.3,36.9,29.99,ESE,116,4.0,5.0,78,0.00,,,0.00,Wunderground v.1.15,2013-04-14 11:24:00,
2013-04-14 07:26:00,43.3,36.9,29.99,ESE,107,4.0,5.0,78,0.00,,,0.00,Wunderground v.1.15,2013-04-14 11:26:00,
2013-04-14 07:27:00,43.3,36.9,29.99,ESE,104,4.0,5.0,78,0.00,,,0.00,Wunderground v.1.15,2013-04-14 11:27:00,
2013-04-14 07:29:00,43.4,36.7,29.99,ESE,106,4.0,5.0,77,0.00,,,0.00,Wunderground v.1.15,2013-04-14 11:29:00,
2013-04-14 07:32:00,43.6,36.9,29.99,ESE,116,3.0,5.0,77,0.00,,,0.00,Wunderground v.1.15,2013-04-14 11:32:00,
2013-04-14 07:33:00,43.6,36.9,29.99,ESE,103,4.0,5.0,77,0.00,,,0.00,Wunderground v.1.15,2013-04-14 11:33:00,
2013-04-14 07:34:00,43.6,36.9,29.99,ESE,103,4.0,5.0,77,0.00,,,0.00,Wunderground v.1.15,2013-04-14 11:34:00,
2013-04-14 07:36:00,43.7,37.0,29.99,ESE,109,4.0,5.0,77,0.00,,,0.00,Wunderground v.1.15,2013-04-14 11:36:00,
2013-04-14 07:39:00,43.8,37.1,29.99,ESE,109,4.0,5.0,77,0.00,,,0.00,Wunderground v.1.15,2013-04-14 11:39:00,
2013-04-14 07:40:00,43.8,37.1,29.99,ESE,114,4.0,5.0,77,0.00,,,0.00,Wunderground v.1.15,2013-04-14 11:40:00,
2013-04-14 07:43:00,43.8,37.1,29.99,ESE,109,4.0,5.0,77,0.00,,,0.00,Wunderground v.1.15,2013-04-14 11:43:00,
2013-04-14 07:44:00,43.8,36.7,29.99,ESE,114,4.0,5.0,76,0.00,,,0.00,Wunderground v.1.15,2013-04-14 11:44:00,
2013-04-14 07:48:00,44.0,36.9,29.99,ESE,107,4.0,5.0,76,0.00,,,0.00,Wunderground v.1.15,2013-04-14 11:48:00,
2013-04-14 07:49:00,44.0,36.9,29.99,ESE,106,4.0,5.0,76,0.00,,,0.00,Wunderground v.1.15,2013-04-14 11:49:00,
2013-04-14 07:50:00,44.0,36.9,29.99,ESE,106,4.0,4.0,76,0.00,,,0.00,Wunderground v.1.15,2013-04-14 11:50:00,
2013-04-14 07:52:00,44.0,36.9,29.99,ESE,106,3.0,4.0,76,0.00,,,0.00,Wunderground v.1.15,2013-04-14 11:52:00,
2013-04-14 07:54:00,44.0,36.9,29.99,ESE,106,3.0,4.0,76,0.00,,,0.00,Wunderground v.1.15,2013-04-14 11:54:00,
2013-04-14 07:57:00,44.0,36.9,29.99,ESE,106,3.0,4.0,76,0.00,,,0.00,Wunderground v.1.15,2013-04-14 11:57:00,
2013-04-14 07:58:00,44.0,36.9,29.99,ESE,106,3.0,4.0,76,0.00,,,0.00,Wunderground v.1.15,2013-04-14 11:58:00,
2013-04-14 08:02:00,44.1,37.0,29.99,ESE,106,3.0,3.0,76,0.00,,,0.00,Wunderground v.1.15,2013-04-14 12:02:00,
2013-04-14 08:03:00,44.1,37.0,29.99,ESE,106,3.0,3.0,76,0.00,,,0.00,Wunderground v.1.15,2013-04-14 12:03:00,
2013-04-14 08:04:00,44.1,37.0,29.99,ESE,106,3.0,3.0,76,0.00,,,0.00,Wunderground v.1.15,2013-04-14 12:04:00,
2013-04-14 08:05:00,44.1,37.3,29.99,ESE,106,3.0,3.0,77,0.00,,,0.00,Wunderground v.1.15,2013-04-14 12:05:00,
2013-04-14 08:09:00,44.3,37.5,29.99,ESE,110,3.0,3.0,77,0.00,,,0.00,Wunderground v.1.15,2013-04-14 12:09:00,
2013-04-14 08:10:00,44.3,37.5,29.99,ESE,110,3.0,3.0,77,0.00,,,0.00,Wunderground v.1.15,2013-04-14 12:10:00,
2013-04-14 08:12:00,44.4,37.6,29.99,ESE,110,2.0,3.0,77,0.00,,,0.00,Wunderground v.1.15,2013-04-14 12:12:00,
2013-04-14 08:15:00,44.6,37.5,29.99,ESE,110,2.0,3.0,76,0.00,,,0.00,Wunderground v.1.15,2013-04-14 12:15:00,
2013-04-14 08:16:00,44.6,37.8,29.99,ESE,110,2.0,3.0,77,0.00,,,0.00,Wunderground v.1.15,2013-04-14 12:16:00,
2013-04-14 08:19:00,44.8,38.0,29.99,ESE,110,2.0,3.0,77,0.00,,,0.00,Wunderground v.1.15,2013-04-14 12:19:00,
2013-04-14 08:21:00,44.8,37.7,29.99,ESE,106,2.0,2.0,76,0.00,,,0.00,Wunderground v.1.15,2013-04-14 12:21:00,
2013-04-14 08:24:00,45.0,37.9,29.99,ESE,104,2.0,3.0,76,0.00,,,0.00,Wunderground v.1.15,2013-04-14 12:24:00,
2013-04-14 08:26:00,45.1,38.0,29.99,ESE,106,2.0,3.0,76,0.00,,,0.00,Wunderground v.1.15,2013-04-14 12:26:00,
2013-04-14 08:29:00,45.3,37.8,29.99,ESE,104,2.0,3.0,75,0.00,,,0.00,Wunderground v.1.15,2013-04-14 12:29:00,
2013-04-14 08:32:00,45.4,37.9,29.99,ESE,106,2.0,3.0,75,0.00,,,0.00,Wunderground v.1.15,2013-04-14 12:32:00,
2013-04-14 08:33:00,45.4,37.9,29.99,ESE,106,2.0,3.0,75,0.00,,,0.00,Wunderground v.1.15,2013-04-14 12:33:00,
2013-04-14 08:34:00,45.4,37.9,29.99,ESE,106,3.0,3.0,75,0.00,,,0.00,Wunderground v.1.15,2013-04-14 12:34:00,
2013-04-14 08:36:00,45.6,38.1,29.99,ESE,107,3.0,3.0,75,0.00,,,0.00,Wunderground v.1.15,2013-04-14 12:36:00,
2013-04-14 08:39:00,45.9,38.4,29.99,ESE,109,3.0,3.0,75,0.00,,,0.00,Wunderground v.1.15,2013-04-14 12:39:00,
2013-04-14 08:40:00,45.9,38.1,29.99,ESE,110,3.0,3.0,74,0.00,,,0.00,Wunderground v.1.15,2013-04-14 12:40:00,
2013-04-14 08:42:00,46.0,38.2,29.99,ESE,110,2.0,3.0,74,0.00,,,0.00,Wunderground v.1.15,2013-04-14 12:42:00,
2013-04-14 08:45:00,46.3,38.5,29.99,ESE,110,2.0,3.0,74,0.00,,,0.00,Wunderground v.1.15,2013-04-14 12:45:00,
2013-04-14 08:48:00,46.6,38.8,29.99,ESE,114,2.0,3.0,74,0.00,,,0.00,Wunderground v.1.15,2013-04-14 12:48:00,
2013-04-14 08:50:00,46.7,38.5,29.99,ESE,114,2.0,2.0,73,0.00,,,0.00,Wunderground v.1.15,2013-04-14 12:50:00,
2013-04-14 08:51:00,46.7,38.9,29.99,ESE,114,2.0,2.0,74,0.00,,,0.00,Wunderground v.1.15,2013-04-14 12:51:00,
2013-04-14 08:55:00,47.2,39.0,29.99,ESE,120,3.0,5.0,73,0.00,,,0.00,Wunderground v.1.15,2013-04-14 12:55:00,
2013-04-14 08:56:00,47.3,39.1,29.99,ESE,121,3.0,5.0,73,0.00,,,0.00,Wunderground v.1.15,2013-04-14 12:56:00,
2013-04-14 08:57:00,47.5,39.3,29.99,SE,124,3.0,5.0,73,0.00,,,0.00,Wunderground v.1.15,2013-04-14 12:57:00,
2013-04-14 08:58:00,47.6,39.7,29.99,SE,124,3.0,5.0,74,0.00,,,0.00,Wunderground v.1.15,2013-04-14 12:58:00,
2013-04-14 09:03:00,48.2,39.2,29.98,ESE,117,4.0,6.0,71,0.00,,,0.00,Wunderground v.1.15,2013-04-14 13:03:00,
2013-04-14 09:04:00,48.2,39.2,29.98,ESE,116,4.0,6.0,71,0.00,,,0.00,Wunderground v.1.15,2013-04-14 13:04:00,
2013-04-14 09:06:00,48.5,39.9,29.98,ESE,109,4.0,6.0,72,0.00,,,0.00,Wunderground v.1.15,2013-04-14 13:06:00,
2013-04-14 09:07:00,48.7,39.7,29.98,ESE,112,4.0,7.0,71,0.00,,,0.00,Wunderground v.1.15,2013-04-14 13:07:00,
2013-04-14 09:11:00,49.0,39.6,29.98,ESE,120,5.0,6.0,70,0.00,,,0.00,Wunderground v.1.15,2013-04-14 13:11:00,
2013-04-14 09:12:00,49.0,39.6,29.98,ESE,117,5.0,6.0,70,0.00,,,0.00,Wunderground v.1.15,2013-04-14 13:12:00,
2013-04-14 09:14:00,49.1,39.7,29.98,ESE,112,5.0,6.0,70,0.00,,,0.00,Wunderground v.1.15,2013-04-14 13:14:00,
2013-04-14 09:17:00,49.3,39.9,29.98,ESE,112,5.0,6.0,70,0.00,,,0.00,Wunderground v.1.15,2013-04-14 13:17:00,
2013-04-14 09:18:00,49.3,39.9,29.98,ESE,112,5.0,6.0,70,0.00,,,0.00,Wunderground v.1.15,2013-04-14 13:18:00,
2013-04-14 09:20:00,49.4,40.4,29.98,ESE,110,5.0,5.0,71,0.00,,,0.00,Wunderground v.1.15,2013-04-14 13:20:00,
2013-04-14 09:21:00,49.4,40.0,29.98,ESE,110,4.0,5.0,70,0.00,,,0.00,Wunderground v.1.15,2013-04-14 13:21:00,
2013-04-14 09:22:00,49.6,40.2,29.98,ESE,110,4.0,5.0,70,0.00,,,0.00,Wunderground v.1.15,2013-04-14 13:22:00,
2013-04-14 09:26:00,49.7,40.3,29.98,ESE,104,3.0,5.0,70,0.00,,,0.00,Wunderground v.1.15,2013-04-14 13:26:00,
2013-04-14 09:27:00,49.9,40.5,29.98,ESE,104,3.0,5.0,70,0.00,,,0.00,Wunderground v.1.15,2013-04-14 13:27:00,
2013-04-14 09:30:00,50.0,40.6,29.98,East,89,2.0,2.0,70,0.00,,,0.00,Wunderground v.1.15,2013-04-14 13:30:00,
2013-04-14 09:31:00,50.0,40.6,29.98,East,89,2.0,2.0,70,0.00,,,0.00,Wunderground v.1.15,2013-04-14 13:31:00,
2013-04-14 09:34:00,50.1,40.7,29.98,East,89,2.0,2.0,70,0.00,,,0.00,Wunderground v.1.15,2013-04-14 13:34:00,
2013-04-14 09:35:00,50.1,40.3,29.98,East,89,2.0,3.0,69,0.00,,,0.00,Wunderground v.1.15,2013-04-14 13:35:00,
2013-04-14 09:38:00,50.3,40.9,29.98,East,89,2.0,3.0,70,0.00,,,0.00,Wunderground v.1.15,2013-04-14 13:38:00,
2013-04-14 09:41:00,50.4,41.0,29.98,East,89,2.0,3.0,70,0.00,,,0.00,Wunderground v.1.15,2013-04-14 13:41:00,
2013-04-14 09:44:00,50.7,41.3,29.98,East,90,2.0,3.0,70,0.00,,,0.00,Wunderground v.1.15,2013-04-14 13:44:00,
2013-04-14 09:45:00,50.7,41.3,29.97,East,90,2.0,3.0,70,0.00,,,0.00,Wunderground v.1.15,2013-04-14 13:45:00,
2013-04-14 09:46:00,50.7,41.3,29.97,East,90,2.0,3.0,70,0.00,,,0.00,Wunderground v.1.15,2013-04-14 13:46:00,
2013-04-14 09:48:00,50.9,41.1,29.97,East,90,2.0,3.0,69,0.00,,,0.00,Wunderground v.1.15,2013-04-14 13:48:00,
2013-04-14 09:49:00,51.0,41.6,29.97,East,90,2.0,4.0,70,0.00,,,0.00,Wunderground v.1.15,2013-04-14 13:49:00,
2013-04-14 09:53:00,51.5,42.0,29.97,East,93,2.0,2.0,70,0.00,,,0.00,Wunderground v.1.15,2013-04-14 13:53:00,
2013-04-14 09:54:00,51.6,41.8,29.97,East,95,2.0,2.0,69,0.00,,,0.00,Wunderground v.1.15,2013-04-14 13:54:00,
2013-04-14 09:58:00,52.2,42.0,29.97,ESE,114,2.0,2.0,68,0.00,,,0.00,Wunderground v.1.15,2013-04-14 13:58:00,
2013-04-14 09:59:00,52.4,42.5,29.97,ESE,117,2.0,3.0,69,0.00,,,0.00,Wunderground v.1.15,2013-04-14 13:59:00,
2013-04-14 10:00:00,53.0,42.7,29.96,ESE,116,2.0,2.0,68,0.00,,,0.00,Wunderground v.1.15,2013-04-14 14:00:00,
2013-04-14 10:03:00,53.4,42.3,29.96,ESE,112,2.0,3.0,66,0.00,,,0.00,Wunderground v.1.15,2013-04-14 14:03:00,
2013-04-14 10:07:00,54.3,41.6,29.96,ESE,119,2.0,7.0,62,0.00,,,0.00,Wunderground v.1.15,2013-04-14 14:07:00,
2013-04-14 10:08:00,54.4,41.2,29.96,SE,130,3.0,7.0,61,0.00,,,0.00,Wunderground v.1.15,2013-04-14 14:08:00,
2013-04-14 10:09:00,54.6,41.8,29.96,ESE,106,3.0,7.0,62,0.00,,,0.00,Wunderground v.1.15,2013-04-14 14:09:00,
2013-04-14 10:14:00,54.9,41.3,29.96,East,97,4.0,6.0,60,0.00,,,0.00,Wunderground v.1.15,2013-04-14 14:14:00,
2013-04-14 10:15:00,54.9,41.3,29.96,SE,128,4.0,6.0,60,0.00,,,0.00,Wunderground v.1.15,2013-04-14 14:15:00,
2013-04-14 10:17:00,55.0,40.9,29.96,SE,131,4.0,6.0,59,0.00,,,0.00,Wunderground v.1.15,2013-04-14 14:17:00,
2013-04-14 10:18:00,55.2,41.5,29.96,SE,130,4.0,6.0,60,0.00,,,0.00,Wunderground v.1.15,2013-04-14 14:18:00,
2013-04-14 10:22:00,55.5,41.0,29.96,SE,127,4.0,6.0,58,0.00,,,0.00,Wunderground v.1.15,2013-04-14 14:22:00,
2013-04-14 10:23:00,55.6,40.6,29.96,SE,130,4.0,6.0,57,0.00,,,0.00,Wunderground v.1.15,2013-04-14 14:23:00,
2013-04-14 10:24:00,55.6,40.6,29.96,ESE,117,4.0,6.0,57,0.00,,,0.00,Wunderground v.1.15,2013-04-14 14:24:00,
2013-04-14 10:26:00,55.9,41.8,29.96,SSE,152,4.0,6.0,59,0.00,,,0.00,Wunderground v.1.15,2013-04-14 14:26:00,
2013-04-14 10:30:00,56.4,41.3,29.96,South,185,4.0,5.0,57,0.00,,,0.00,Wunderground v.1.15,2013-04-14 14:30:00,
2013-04-14 10:31:00,56.4,40.9,29.96,SSE,162,4.0,5.0,56,0.00,,,0.00,Wunderground v.1.15,2013-04-14 14:31:00,
2013-04-14 10:32:00,56.4,40.9,29.96,ESE,116,4.0,8.0,56,0.00,,,0.00,Wunderground v.1.15,2013-04-14 14:32:00,
2013-04-14 10:36:00,56.5,41.0,29.96,ESE,116,5.0,8.0,56,0.00,,,0.00,Wunderground v.1.15,2013-04-14 14:36:00,
2013-04-14 10:37:00,56.5,41.4,29.96,ESE,114,5.0,8.0,57,0.00,,,0.00,Wunderground v.1.15,2013-04-14 14:37:00,
2013-04-14 10:42:00,57.0,41.4,29.96,SE,126,4.0,5.0,56,0.00,,,0.00,Wunderground v.1.15,2013-04-14 14:42:00,
2013-04-14 10:43:00,57.0,41.0,29.96,SE,130,4.0,5.0,55,0.00,,,0.00,Wunderground v.1.15,2013-04-14 14:43:00,
2013-04-14 10:44:00,57.1,41.1,29.96,SE,126,4.0,5.0,55,0.00,,,0.00,Wunderground v.1.15,2013-04-14 14:44:00,
2013-04-14 10:48:00,57.5,41.4,29.95,SE,134,3.0,7.0,55,0.00,,,0.00,Wunderground v.1.15,2013-04-14 14:48:00,
2013-04-14 10:49:00,57.5,41.9,29.95,SE,128,4.0,7.0,56,0.00,,,0.00,Wunderground v.1.15,2013-04-14 14:49:00,
2013-04-14 10:51:00,57.8,41.3,29.95,ESE,113,4.0,5.0,54,0.00,,,0.00,Wunderground v.1.15,2013-04-14 14:51:00,
2013-04-14 10:55:00,58.1,42.0,29.95,ESE,117,5.0,6.0,55,0.00,,,0.00,Wunderground v.1.15,2013-04-14 14:55:00,
2013-04-14 10:56:00,58.3,42.2,29.95,SE,126,5.0,8.0,55,0.00,,,0.00,Wunderground v.1.15,2013-04-14 14:56:00,
2013-04-14 10:58:00,58.6,42.0,29.95,ESE,123,6.0,8.0,54,0.00,,,0.00,Wunderground v.1.15,2013-04-14 14:58:00,
2013-04-14 11:01:00,58.8,41.7,29.94,ESE,113,7.0,10.0,53,0.00,,,0.00,Wunderground v.1.15,2013-04-14 15:01:00,
2013-04-14 11:03:00,58.9,40.8,29.94,SE,124,7.0,10.0,51,0.00,,,0.00,Wunderground v.1.15,2013-04-14 15:03:00,
2013-04-14 11:08:00,59.7,41.5,29.94,SE,133,7.0,10.0,51,0.00,,,0.00,Wunderground v.1.15,2013-04-14 15:08:00,
2013-04-14 11:09:00,59.8,41.6,29.94,ESE,106,6.0,10.0,51,0.00,,,0.00,Wunderground v.1.15,2013-04-14 15:09:00,
2013-04-14 11:11:00,60.1,41.4,29.94,SE,126,6.0,6.0,50,0.00,,,0.00,Wunderground v.1.15,2013-04-14 15:11:00,
2013-04-14 11:14:00,60.6,42.4,29.94,ESE,119,5.0,6.0,51,0.00,,,0.00,Wunderground v.1.15,2013-04-14 15:14:00,
2013-04-14 11:16:00,60.9,42.6,29.94,SE,138,4.0,6.0,51,0.00,,,0.00,Wunderground v.1.15,2013-04-14 15:16:00,
2013-04-14 11:19:00,61.2,41.3,29.94,SE,126,4.0,6.0,48,0.00,,,0.00,Wunderground v.1.15,2013-04-14 15:19:00,
2013-04-14 11:20:00,61.4,41.5,29.94,SE,130,4.0,5.0,48,0.00,,,0.00,Wunderground v.1.15,2013-04-14 15:20:00,
2013-04-14 11:21:00,61.2,41.3,29.94,SE,126,4.0,5.0,48,0.00,,,0.00,Wunderground v.1.15,2013-04-14 15:21:00,
2013-04-14 11:23:00,61.4,41.5,29.94,SSE,152,4.0,6.0,48,0.00,,,0.00,Wunderground v.1.15,2013-04-14 15:23:00,
2013-04-14 11:26:00,61.5,42.2,29.94,SSE,161,4.0,6.0,49,0.00,,,0.00,Wunderground v.1.15,2013-04-14 15:26:00,
2013-04-14 11:28:00,61.7,42.9,29.94,SE,138,4.0,6.0,50,0.00,,,0.00,Wunderground v.1.15,2013-04-14 15:28:00,
2013-04-14 11:29:00,61.7,42.3,29.94,ESE,110,5.0,6.0,49,0.00,,,0.00,Wunderground v.1.15,2013-04-14 15:29:00,
2013-04-14 11:31:00,61.7,42.3,29.94,SSE,157,5.0,5.0,49,0.00,,,0.00,Wunderground v.1.15,2013-04-14 15:31:00,
2013-04-14 11:32:00,61.7,41.3,29.94,ESE,113,5.0,7.0,47,0.00,,,0.00,Wunderground v.1.15,2013-04-14 15:32:00,
2013-04-14 11:35:00,62.0,41.5,29.94,ESE,120,6.0,7.0,47,0.00,,,0.00,Wunderground v.1.15,2013-04-14 15:35:00,
2013-04-14 11:38:00,62.0,42.1,29.94,ESE,119,6.0,7.0,48,0.00,,,0.00,Wunderground v.1.15,2013-04-14 15:38:00,
2013-04-14 11:39:00,62.0,43.1,29.94,SE,128,6.0,7.0,50,0.00,,,0.00,Wunderground v.1.15,2013-04-14 15:39:00,
2013-04-14 11:40:00,62.0,42.1,29.94,ESE,119,6.0,8.0,48,0.00,,,0.00,Wunderground v.1.15,2013-04-14 15:40:00,
2013-04-14 11:45:00,62.3,43.4,29.94,ESE,107,7.0,9.0,50,0.00,,,0.00,Wunderground v.1.15,2013-04-14 15:45:00,
2013-04-14 11:46:00,62.5,43.1,29.94,ESE,112,7.0,9.0,49,0.00,,,0.00,Wunderground v.1.15,2013-04-14 15:46:00,
2013-04-14 11:47:00,62.6,42.6,29.94,ESE,114,7.0,9.0,48,0.00,,,0.00,Wunderground v.1.15,2013-04-14 15:47:00,
2013-04-14 11:50:00,62.6,43.2,29.94,ESE,116,7.0,11.0,49,0.00,,,0.00,Wunderground v.1.15,2013-04-14 15:50:00,
2013-04-14 11:53:00,63.1,44.2,29.94,ESE,113,6.0,11.0,50,0.00,,,0.00,Wunderground v.1.15,2013-04-14 15:53:00,
2013-04-14 11:55:00,63.2,43.7,29.94,ESE,114,7.0,11.0,49,0.00,,,0.00,Wunderground v.1.15,2013-04-14 15:55:00,
2013-04-14 11:56:00,63.4,44.4,29.94,ESE,106,7.0,11.0,50,0.00,,,0.00,Wunderground v.1.15,2013-04-14 15:56:00,
2013-04-14 11:59:00,63.7,44.2,29.94,ESE,121,6.0,11.0,49,0.00,,,0.00,Wunderground v.1.15,2013-04-14 15:59:00,
2013-04-14 12:01:00,63.7,43.1,29.93,ESE,121,6.0,8.0,47,0.00,,,0.00,Wunderground v.1.15,2013-04-14 16:01:00,
2013-04-14 12:02:00,63.7,43.6,29.93,ESE,109,6.0,8.0,48,0.00,,,0.00,Wunderground v.1.15,2013-04-14 16:02:00,
2013-04-14 12:08:00,63.9,43.3,29.93,ESE,112,7.0,8.0,47,0.00,,,0.00,Wunderground v.1.15,2013-04-14 16:08:00,
2013-04-14 12:10:00,63.9,43.8,29.93,ESE,102,7.0,7.0,48,0.00,,,0.00,Wunderground v.1.15,2013-04-14 16:10:00,
2013-04-14 12:12:00,64.0,43.4,29.93,SE,124,7.0,7.0,47,0.00,,,0.00,Wunderground v.1.15,2013-04-14 16:12:00,
2013-04-14 12:13:00,64.4,44.3,29.93,SE,137,7.0,7.0,48,0.00,,,0.00,Wunderground v.1.15,2013-04-14 16:13:00,
2013-04-14 12:14:00,64.7,44.5,29.93,SE,144,7.0,7.0,48,0.00,,,0.00,Wunderground v.1.15,2013-04-14 16:14:00,
2013-04-14 12:15:00,64.8,43.5,29.92,SE,134,6.0,7.0,46,0.00,,,0.00,Wunderground v.1.15,2013-04-14 16:15:00,
2013-04-14 12:20:00,64.8,42.9,29.92,SSE,155,7.0,7.0,45,0.00,,,0.00,Wunderground v.1.15,2013-04-14 16:20:00,
2013-04-14 12:21:00,64.7,42.9,29.92,ESE,116,7.0,8.0,45,0.00,,,0.00,Wunderground v.1.15,2013-04-14 16:21:00,
2013-04-14 12:25:00,64.8,43.5,29.92,SE,133,7.0,8.0,46,0.00,,,0.00,Wunderground v.1.15,2013-04-14 16:25:00,
2013-04-14 12:26:00,65.0,43.1,29.92,ESE,104,7.0,8.0,45,0.00,,,0.00,Wunderground v.1.15,2013-04-14 16:26:00,
2013-04-14 12:27:00,65.0,42.5,29.92,ESE,109,7.0,8.0,44,0.00,,,0.00,Wunderground v.1.15,2013-04-14 16:27:00,
2013-04-14 12:28:00,65.0,43.7,29.92,ESE,119,7.0,8.0,46,0.00,,,0.00,Wunderground v.1.15,2013-04-14 16:28:00,
2013-04-14 12:31:00,65.3,43.4,29.91,ESE,120,6.0,7.0,45,0.00,,,0.00,Wunderground v.1.15,2013-04-14 16:31:00,
2013-04-14 12:34:00,66.0,42.9,29.91,South,171,5.0,7.0,43,0.00,,,0.00,Wunderground v.1.15,2013-04-14 16:34:00,
2013-04-14 12:35:00,66.0,42.9,29.91,ESE,112,5.0,7.0,43,0.00,,,0.00,Wunderground v.1.15,2013-04-14 16:35:00,
2013-04-14 12:37:00,66.1,42.9,29.91,ESE,114,5.0,7.0,43,0.00,,,0.00,Wunderground v.1.15,2013-04-14 16:37:00,
2013-04-14 12:40:00,66.3,43.1,29.91,ESE,120,5.0,7.0,43,0.00,,,0.00,Wunderground v.1.15,2013-04-14 16:40:00,
2013-04-14 12:41:00,66.5,42.7,29.91,ESE,112,5.0,7.0,42,0.00,,,0.00,Wunderground v.1.15,2013-04-14 16:41:00,
2013-04-14 12:43:00,66.6,42.8,29.91,ESE,117,6.0,7.0,42,0.00,,,0.00,Wunderground v.1.15,2013-04-14 16:43:00,
2013-04-14 12:45:00,66.9,42.4,29.90,ESE,114,6.0,7.0,41,0.00,,,0.00,Wunderground v.1.15,2013-04-14 16:45:00,
2013-04-14 12:46:00,66.9,43.0,29.90,ESE,116,5.0,7.0,42,0.00,,,0.00,Wunderground v.1.15,2013-04-14 16:46:00,
2013-04-14 12:51:00,67.1,43.8,29.90,SE,126,5.0,6.0,43,0.00,,,0.00,Wunderground v.1.15,2013-04-14 16:51:00,
2013-04-14 12:52:00,67.1,43.2,29.90,ESE,121,5.0,7.0,42,0.00,,,0.00,Wunderground v.1.15,2013-04-14 16:52:00,
2013-04-14 12:54:00,67.3,44.0,29.90,ESE,109,6.0,10.0,43,0.00,,,0.00,Wunderground v.1.15,2013-04-14 16:54:00,
2013-04-14 12:55:00,67.4,42.2,29.90,ESE,116,6.0,11.0,40,0.00,,,0.00,Wunderground v.1.15,2013-04-14 16:55:00,
2013-04-14 12:58:00,67.6,42.4,29.90,ESE,106,7.0,11.0,40,0.00,,,0.00,Wunderground v.1.15,2013-04-14 16:58:00,
2013-04-14 13:00:00,67.8,43.2,29.90,ESE,112,7.0,7.0,41,0.00,,,0.00,Wunderground v.1.15,2013-04-14 17:00:00,
2013-04-14 13:01:00,67.8,42.6,29.90,ESE,121,7.0,7.0,40,0.00,,,0.00,Wunderground v.1.15,2013-04-14 17:01:00,
2013-04-14 13:04:00,67.8,42.6,29.90,ESE,121,8.0,9.0,40,0.00,,,0.00,Wunderground v.1.15,2013-04-14 17:04:00,
2013-04-14 13:07:00,67.9,43.3,29.90,ESE,113,7.0,9.0,41,0.00,,,0.00,Wunderground v.1.15,2013-04-14 17:07:00,
2013-04-14 13:10:00,68.3,41.0,29.90,ESE,117,8.0,8.0,37,0.00,,,0.00,Wunderground v.1.15,2013-04-14 17:10:00,
2013-04-14 13:11:00,68.3,41.0,29.90,ESE,112,7.0,8.0,37,0.00,,,0.00,Wunderground v.1.15,2013-04-14 17:11:00,
2013-04-14 13:12:00,68.4,43.1,29.90,ESE,112,7.0,8.0,40,0.00,,,0.00,Wunderground v.1.15,2013-04-14 17:12:00,
2013-04-14 13:15:00,68.8,41.5,29.89,ESE,112,7.0,8.0,37,0.00,,,0.00,Wunderground v.1.15,2013-04-14 17:15:00,
2013-04-14 13:16:00,68.8,41.5,29.89,SSE,168,7.0,8.0,37,0.00,,,0.00,Wunderground v.1.15,2013-04-14 17:16:00,
2013-04-14 13:18:00,68.9,40.8,29.89,ESE,123,7.0,11.0,36,0.00,,,0.00,Wunderground v.1.15,2013-04-14 17:18:00,
2013-04-14 13:22:00,68.9,40.8,29.89,ESE,116,7.0,7.0,36,0.00,,,0.00,Wunderground v.1.15,2013-04-14 17:22:00,
2013-04-14 13:24:00,69.3,43.9,29.89,ESE,110,7.0,7.0,40,0.00,,,0.00,Wunderground v.1.15,2013-04-14 17:24:00,
2013-04-14 13:25:00,69.3,43.9,29.89,ESE,123,7.0,10.0,40,0.00,,,0.00,Wunderground v.1.15,2013-04-14 17:25:00,
2013-04-14 13:27:00,69.3,40.5,29.89,ESE,114,7.0,10.0,35,0.00,,,0.00,Wunderground v.1.15,2013-04-14 17:27:00,
2013-04-14 13:30:00,69.3,41.2,29.89,ESE,112,6.0,9.0,36,0.00,,,0.00,Wunderground v.1.15,2013-04-14 17:30:00,
2013-04-14 13:32:00,69.3,42.6,29.89,SE,134,7.0,9.0,38,0.00,,,0.00,Wunderground v.1.15,2013-04-14 17:32:00,
2013-04-14 13:36:00,69.1,41.0,29.89,SSE,165,7.0,11.0,36,0.00,,,0.00,Wunderground v.1.15,2013-04-14 17:36:00,
2013-04-14 13:37:00,69.3,41.9,29.89,ESE,110,7.0,12.0,37,0.00,,,0.00,Wunderground v.1.15,2013-04-14 17:37:00,
2013-04-14 13:40:00,69.4,42.0,29.89,SE,131,7.0,7.0,37,0.00,,,0.00,Wunderground v.1.15,2013-04-14 17:40:00,
2013-04-14 13:41:00,69.4,41.3,29.89,ESE,114,7.0,8.0,36,0.00,,,0.00,Wunderground v.1.15,2013-04-14 17:41:00,
2013-04-14 13:43:00,69.4,42.0,29.89,SE,127,8.0,8.0,37,0.00,,,0.00,Wunderground v.1.15,2013-04-14 17:43:00,
2013-04-14 13:46:00,69.8,40.9,29.89,ESE,113,7.0,11.0,35,0.00,,,0.00,Wunderground v.1.15,2013-04-14 17:46:00,
2013-04-14 13:48:00,69.8,44.4,29.89,ESE,112,8.0,14.0,40,0.00,,,0.00,Wunderground v.1.15,2013-04-14 17:48:00,
2013-04-14 13:49:00,69.9,43.1,29.89,SE,126,8.0,14.0,38,0.00,,,0.00,Wunderground v.1.15,2013-04-14 17:49:00,
2013-04-14 13:51:00,69.9,41.7,29.89,SE,143,8.0,10.0,36,0.00,,,0.00,Wunderground v.1.15,2013-04-14 17:51:00,
2013-04-14 13:54:00,70.1,41.9,29.89,ESE,109,8.0,10.0,36,0.00,,,0.00,Wunderground v.1.15,2013-04-14 17:54:00,
2013-04-14 13:55:00,70.1,41.9,29.89,ESE,119,9.0,11.0,36,0.00,,,0.00,Wunderground v.1.15,2013-04-14 17:55:00,
2013-04-14 13:56:00,69.9,41.7,29.89,ESE,119,8.0,11.0,36,0.00,,,0.00,Wunderground v.1.15,2013-04-14 17:56:00,
2013-04-14 13:59:00,70.3,42.1,29.89,ESE,117,7.0,11.0,36,0.00,,,0.00,Wunderground v.1.15,2013-04-14 17:59:00,
2013-04-14 14:01:00,70.4,42.2,29.89,ESE,121,7.0,10.0,36,0.00,,,0.00,Wunderground v.1.15,2013-04-14 18:01:00,
2013-04-14 14:03:00,70.4,40.7,29.89,ESE,110,7.0,10.0,34,0.00,,,0.00,Wunderground v.1.15,2013-04-14 18:03:00,
2013-04-14 14:04:00,70.4,41.4,29.89,ESE,106,7.0,10.0,35,0.00,,,0.00,Wunderground v.1.15,2013-04-14 18:04:00,
2013-04-14 14:07:00,70.8,41.8,29.89,SE,128,7.0,10.0,35,0.00,,,0.00,Wunderground v.1.15,2013-04-14 18:07:00,
2013-04-14 14:09:00,71.1,41.3,29.89,SE,126,6.0,10.0,34,0.00,,,0.00,Wunderground v.1.15,2013-04-14 18:09:00,
2013-04-14 14:12:00,71.1,40.5,29.89,SSE,154,6.0,8.0,33,0.00,,,0.00,Wunderground v.1.15,2013-04-14 18:12:00,
2013-04-14 14:13:00,71.3,41.5,29.89,East,96,6.0,8.0,34,0.00,,,0.00,Wunderground v.1.15,2013-04-14 18:13:00,
2013-04-14 14:14:00,71.3,41.5,29.89,ESE,109,6.0,8.0,34,0.00,,,0.00,Wunderground v.1.15,2013-04-14 18:14:00,
2013-04-14 14:19:00,71.8,42.7,29.88,ESE,112,7.0,8.0,35,0.00,,,0.00,Wunderground v.1.15,2013-04-14 18:19:00,
2013-04-14 14:20:00,72.0,44.3,29.88,ESE,107,6.0,7.0,37,0.00,,,0.00,Wunderground v.1.15,2013-04-14 18:20:00,
2013-04-14 14:23:00,71.8,40.3,29.88,ESE,114,7.0,10.0,32,0.00,,,0.00,Wunderground v.1.15,2013-04-14 18:23:00,
2013-04-14 14:25:00,71.6,43.9,29.88,ESE,112,7.0,10.0,37,0.00,,,0.00,Wunderground v.1.15,2013-04-14 18:25:00,
2013-04-14 14:28:00,71.8,42.7,29.88,ESE,123,7.0,10.0,35,0.00,,,0.00,Wunderground v.1.15,2013-04-14 18:28:00,
2013-04-14 14:30:00,71.8,40.3,29.87,South,169,7.0,7.0,32,0.00,,,0.00,Wunderground v.1.15,2013-04-14 18:30:00,
2013-04-14 14:31:00,71.8,40.3,29.87,SE,131,7.0,7.0,32,0.00,,,0.00,Wunderground v.1.15,2013-04-14 18:31:00,
2013-04-14 14:34:00,72.5,41.0,29.87,South,179,6.0,7.0,32,0.00,,,0.00,Wunderground v.1.15,2013-04-14 18:34:00,
2013-04-14 14:37:00,73.0,43.0,29.87,ESE,116,5.0,10.0,34,0.00,,,0.00,Wunderground v.1.15,2013-04-14 18:37:00,
2013-04-14 14:38:00,73.2,39.9,29.87,SSW,196,5.0,10.0,30,0.00,,,0.00,Wunderground v.1.15,2013-04-14 18:38:00,
2013-04-14 14:39:00,73.2,39.0,29.87,SE,127,5.0,10.0,29,0.00,,,0.00,Wunderground v.1.15,2013-04-14 18:39:00,
2013-04-14 14:44:00,73.5,38.4,29.87,SE,143,5.0,10.0,28,0.00,,,0.00,Wunderground v.1.15,2013-04-14 18:44:00,
2013-04-14 14:45:00,73.5,39.3,29.87,SE,133,6.0,10.0,29,0.00,,,0.00,Wunderground v.1.15,2013-04-14 18:45:00,
2013-04-14 14:49:00,73.3,38.2,29.87,South,174,5.0,10.0,28,0.00,,,0.00,Wunderground v.1.15,2013-04-14 18:49:00,
2013-04-14 14:50:00,73.3,38.2,29.87,SE,131,5.0,5.0,28,0.00,,,0.00,Wunderground v.1.15,2013-04-14 18:50:00,
2013-04-14 14:51:00,73.5,39.3,29.87,ESE,114,5.0,8.0,29,0.00,,,0.00,Wunderground v.1.15,2013-04-14 18:51:00,
2013-04-14 14:54:00,73.5,39.3,29.87,SW,222,5.0,8.0,29,0.00,,,0.00,Wunderground v.1.15,2013-04-14 18:54:00,
2013-04-14 14:55:00,73.7,39.5,29.87,SE,127,4.0,8.0,29,0.00,,,0.00,Wunderground v.1.15,2013-04-14 18:55:00,
2013-04-14 14:56:00,73.7,39.5,29.87,SSE,157,4.0,8.0,29,0.00,,,0.00,Wunderground v.1.15,2013-04-14 18:56:00,
2013-04-14 14:58:00,73.8,41.3,29.87,SSW,213,4.0,8.0,31,0.00,,,0.00,Wunderground v.1.15,2013-04-14 18:58:00,
2013-04-14 15:02:00,74.0,37.9,29.86,SSE,157,3.0,5.0,27,0.00,,,0.00,Wunderground v.1.15,2013-04-14 19:02:00,
2013-04-14 15:03:00,74.0,37.9,29.86,SE,143,3.0,5.0,27,0.00,,,0.00,Wunderground v.1.15,2013-04-14 19:03:00,
2013-04-14 15:05:00,74.2,39.0,29.86,ESE,114,4.0,6.0,28,0.00,,,0.00,Wunderground v.1.15,2013-04-14 19:05:00,
2013-04-14 15:06:00,74.2,39.0,29.86,SSE,147,4.0,6.0,28,0.00,,,0.00,Wunderground v.1.15,2013-04-14 19:06:00,
2013-04-14 15:07:00,74.2,39.0,29.86,SSE,148,4.0,6.0,28,0.00,,,0.00,Wunderground v.1.15,2013-04-14 19:07:00,
2013-04-14 15:11:00,74.0,38.8,29.86,SE,124,5.0,8.0,28,0.00,,,0.00,Wunderground v.1.15,2013-04-14 19:11:00,
2013-04-14 15:15:00,74.0,38.8,29.86,SW,215,6.0,9.0,28,0.00,,,0.00,Wunderground v.1.15,2013-04-14 19:15:00,
2013-04-14 15:16:00,74.2,38.1,29.86,SE,145,6.0,9.0,27,0.00,,,0.00,Wunderground v.1.15,2013-04-14 19:16:00,
2013-04-14 15:17:00,74.0,37.9,29.86,SSW,198,6.0,9.0,27,0.00,,,0.00,Wunderground v.1.15,2013-04-14 19:17:00,
2013-04-14 15:20:00,74.0,37.9,29.86,SE,130,6.0,6.0,27,0.00,,,0.00,Wunderground v.1.15,2013-04-14 19:20:00,
2013-04-14 15:22:00,73.8,36.8,29.86,SSE,154,6.0,6.0,26,0.00,,,0.00,Wunderground v.1.15,2013-04-14 19:22:00,
2013-04-14 15:25:00,73.8,37.7,29.86,SE,133,5.0,6.0,27,0.00,,,0.00,Wunderground v.1.15,2013-04-14 19:25:00,
2013-04-14 15:26:00,73.8,37.7,29.86,SSE,147,5.0,6.0,27,0.00,,,0.00,Wunderground v.1.15,2013-04-14 19:26:00,
2013-04-14 15:27:00,74.0,38.8,29.86,ESE,114,5.0,7.0,28,0.00,,,0.00,Wunderground v.1.15,2013-04-14 19:27:00,
2013-04-14 15:30:00,74.2,39.0,29.84,South,181,4.0,7.0,28,0.00,,,0.00,Wunderground v.1.15,2013-04-14 19:30:00,
2013-04-14 15:31:00,74.2,39.0,29.84,SE,137,4.0,7.0,28,0.00,,,0.00,Wunderground v.1.15,2013-04-14 19:31:00,
2013-04-14 15:32:00,74.0,36.9,29.84,ESE,114,4.0,10.0,26,0.00,,,0.00,Wunderground v.1.15,2013-04-14 19:32:00,
2013-04-14 15:33:00,73.8,36.8,29.84,SE,128,5.0,10.0,26,0.00,,,0.00,Wunderground v.1.15,2013-04-14 19:33:00,
2013-04-14 15:38:00,74.0,37.9,29.84,ESE,114,5.0,12.0,27,0.00,,,0.00,Wunderground v.1.15,2013-04-14 19:38:00,
2013-04-14 15:39:00,74.0,40.6,29.84,ESE,109,6.0,12.0,30,0.00,,,0.00,Wunderground v.1.15,2013-04-14 19:39:00,
2013-04-14 15:40:00,74.0,38.8,29.84,SW,220,6.0,8.0,28,0.00,,,0.00,Wunderground v.1.15,2013-04-14 19:40:00,
2013-04-14 15:42:00,74.2,39.0,29.84,SE,141,6.0,8.0,28,0.00,,,0.00,Wunderground v.1.15,2013-04-14 19:42:00,
2013-04-14 15:44:00,74.4,40.1,29.84,ESE,117,6.0,8.0,29,0.00,,,0.00,Wunderground v.1.15,2013-04-14 19:44:00,
2013-04-14 15:45:00,74.4,40.1,29.83,ESE,112,6.0,10.0,29,0.00,,,0.00,Wunderground v.1.15,2013-04-14 19:45:00,
2013-04-14 15:46:00,74.2,40.8,29.83,ESE,120,7.0,10.0,30,0.00,,,0.00,Wunderground v.1.15,2013-04-14 19:46:00,
2013-04-14 15:48:00,73.8,38.6,29.83,SSE,157,7.0,10.0,28,0.00,,,0.00,Wunderground v.1.15,2013-04-14 19:48:00,
2013-04-14 15:51:00,74.2,39.9,29.83,ESE,110,6.0,11.0,29,0.00,,,0.00,Wunderground v.1.15,2013-04-14 19:51:00,
2013-04-14 15:55:00,74.2,39.9,29.83,ESE,113,7.0,11.0,29,0.00,,,0.00,Wunderground v.1.15,2013-04-14 19:55:00,
2013-04-14 15:57:00,74.0,39.7,29.83,SE,133,7.0,11.0,29,0.00,,,0.00,Wunderground v.1.15,2013-04-14 19:57:00,
2013-04-14 16:02:00,74.0,39.7,29.83,SE,131,7.0,7.0,29,0.00,,,0.00,Wunderground v.1.15,2013-04-14 20:02:00,
2013-04-14 16:03:00,74.0,39.7,29.83,SSE,160,7.0,7.0,29,0.00,,,0.00,Wunderground v.1.15,2013-04-14 20:03:00,
2013-04-14 16:05:00,74.0,41.4,29.83,SW,232,6.0,7.0,31,0.00,,,0.00,Wunderground v.1.15,2013-04-14 20:05:00,
2013-04-14 16:06:00,74.2,39.0,29.83,SW,215,6.0,7.0,28,0.00,,,0.00,Wunderground v.1.15,2013-04-14 20:06:00,
2013-04-14 16:08:00,74.4,39.2,29.83,SE,131,6.0,7.0,28,0.00,,,0.00,Wunderground v.1.15,2013-04-14 20:08:00,
2013-04-14 16:12:00,74.5,39.2,29.83,SSE,162,5.0,5.0,28,0.00,,,0.00,Wunderground v.1.15,2013-04-14 20:12:00,
2013-04-14 16:13:00,74.5,40.1,29.83,ESE,123,5.0,6.0,29,0.00,,,0.00,Wunderground v.1.15,2013-04-14 20:13:00,
2013-04-14 16:16:00,74.4,40.9,29.83,SE,131,5.0,7.0,30,0.00,,,0.00,Wunderground v.1.15,2013-04-14 20:16:00,
2013-04-14 16:19:00,73.7,40.3,29.83,SSE,148,6.0,8.0,30,0.00,,,0.00,Wunderground v.1.15,2013-04-14 20:19:00,
2013-04-14 16:21:00,73.7,42.0,29.83,SE,145,6.0,6.0,32,0.00,,,0.00,Wunderground v.1.15,2013-04-14 20:21:00,
2013-04-14 16:22:00,73.8,41.3,29.83,ESE,107,6.0,8.0,31,0.00,,,0.00,Wunderground v.1.15,2013-04-14 20:22:00,
2013-04-14 16:23:00,73.8,41.3,29.83,ESE,112,5.0,8.0,31,0.00,,,0.00,Wunderground v.1.15,2013-04-14 20:23:00,
2013-04-14 16:26:00,73.5,41.8,29.83,ESE,110,6.0,9.0,32,0.00,,,0.00,Wunderground v.1.15,2013-04-14 20:26:00,
2013-04-14 16:29:00,73.3,40.0,29.83,ESE,116,6.0,11.0,30,0.00,,,0.00,Wunderground v.1.15,2013-04-14 20:29:00,
2013-04-14 16:31:00,73.3,42.4,29.82,ESE,116,7.0,9.0,33,0.00,,,0.00,Wunderground v.1.15,2013-04-14 20:31:00,
2013-04-14 16:33:00,73.3,41.6,29.82,SE,128,8.0,9.0,32,0.00,,,0.00,Wunderground v.1.15,2013-04-14 20:33:00,
2013-04-14 16:34:00,73.3,42.4,29.82,SE,128,8.0,9.0,33,0.00,,,0.00,Wunderground v.1.15,2013-04-14 20:34:00,
2013-04-14 16:36:00,73.5,41.8,29.82,SE,128,7.0,9.0,32,0.00,,,0.00,Wunderground v.1.15,2013-04-14 20:36:00,
2013-04-14 16:39:00,73.3,40.8,29.82,SSE,157,6.0,9.0,31,0.00,,,0.00,Wunderground v.1.15,2013-04-14 20:39:00,
2013-04-14 16:43:00,73.3,40.0,29.82,SE,133,5.0,6.0,30,0.00,,,0.00,Wunderground v.1.15,2013-04-14 20:43:00,
2013-04-14 16:44:00,73.3,39.1,29.82,ESE,120,5.0,7.0,29,0.00,,,0.00,Wunderground v.1.15,2013-04-14 20:44:00,
2013-04-14 16:45:00,73.3,39.1,29.81,ESE,113,5.0,10.0,29,0.00,,,0.00,Wunderground v.1.15,2013-04-14 20:45:00,
2013-04-14 16:49:00,73.0,39.7,29.81,ESE,121,6.0,10.0,30,0.00,,,0.00,Wunderground v.1.15,2013-04-14 20:49:00,
2013-04-14 16:52:00,73.0,39.7,29.81,SE,130,7.0,8.0,30,0.00,,,0.00,Wunderground v.1.15,2013-04-14 20:52:00,
2013-04-14 16:54:00,73.2,39.9,29.81,East,100,7.0,8.0,30,0.00,,,0.00,Wunderground v.1.15,2013-04-14 20:54:00,
2013-04-14 16:55:00,73.2,40.7,29.81,ESE,112,7.0,8.0,31,0.00,,,0.00,Wunderground v.1.15,2013-04-14 20:55:00,
2013-04-14 16:59:00,73.2,39.9,29.81,ESE,112,7.0,9.0,30,0.00,,,0.00,Wunderground v.1.15,2013-04-14 20:59:00,
2013-04-14 17:00:00,73.2,39.9,29.81,SSE,160,7.0,7.0,30,0.00,,,0.00,Wunderground v.1.15,2013-04-14 21:00:00,
2013-04-14 17:02:00,73.2,40.7,29.81,ESE,117,7.0,7.0,31,0.00,,,0.00,Wunderground v.1.15,2013-04-14 21:02:00,
2013-04-14 17:03:00,73.2,41.6,29.81,SE,127,7.0,7.0,32,0.00,,,0.00,Wunderground v.1.15,2013-04-14 21:03:00,
2013-04-14 17:05:00,73.2,39.9,29.81,ESE,123,7.0,7.0,30,0.00,,,0.00,Wunderground v.1.15,2013-04-14 21:05:00,
2013-04-14 17:07:00,73.2,40.7,29.81,ESE,103,6.0,7.0,31,0.00,,,0.00,Wunderground v.1.15,2013-04-14 21:07:00,
2013-04-14 17:09:00,73.0,40.6,29.81,ESE,102,6.0,7.0,31,0.00,,,0.00,Wunderground v.1.15,2013-04-14 21:09:00,
2013-04-14 17:10:00,73.0,40.6,29.81,East,99,7.0,7.0,31,0.00,,,0.00,Wunderground v.1.15,2013-04-14 21:10:00,
2013-04-14 17:12:00,73.0,40.6,29.81,SE,127,6.0,7.0,31,0.00,,,0.00,Wunderground v.1.15,2013-04-14 21:12:00,
2013-04-14 17:16:00,73.2,40.7,29.81,ESE,114,6.0,11.0,31,0.00,,,0.00,Wunderground v.1.15,2013-04-14 21:16:00,
2013-04-14 17:19:00,73.3,42.4,29.81,ESE,119,6.0,11.0,33,0.00,,,0.00,Wunderground v.1.15,2013-04-14 21:19:00,
2013-04-14 17:21:00,73.3,39.1,29.81,SE,143,6.0,8.0,29,0.00,,,0.00,Wunderground v.1.15,2013-04-14 21:21:00,
2013-04-14 17:23:00,73.5,40.2,29.81,ESE,119,7.0,8.0,30,0.00,,,0.00,Wunderground v.1.15,2013-04-14 21:23:00,
2013-04-14 17:25:00,73.5,40.2,29.81,SSE,154,7.0,8.0,30,0.00,,,0.00,Wunderground v.1.15,2013-04-14 21:25:00,
2013-04-14 17:27:00,73.5,40.2,29.81,SE,134,7.0,8.0,30,0.00,,,0.00,Wunderground v.1.15,2013-04-14 21:27:00,
2013-04-14 17:28:00,73.5,40.2,29.81,SE,131,7.0,8.0,30,0.00,,,0.00,Wunderground v.1.15,2013-04-14 21:28:00,
2013-04-14 17:29:00,73.7,39.5,29.81,ESE,120,6.0,8.0,29,0.00,,,0.00,Wunderground v.1.15,2013-04-14 21:29:00,
2013-04-14 17:31:00,73.7,40.3,29.81,ESE,112,7.0,9.0,30,0.00,,,0.00,Wunderground v.1.15,2013-04-14 21:31:00,
2013-04-14 17:32:00,73.5,40.2,29.81,ESE,113,7.0,11.0,30,0.00,,,0.00,Wunderground v.1.15,2013-04-14 21:32:00,
2013-04-14 17:33:00,73.5,40.2,29.81,ESE,113,7.0,11.0,30,0.00,,,0.00,Wunderground v.1.15,2013-04-14 21:33:00,
2013-04-14 17:38:00,73.8,40.4,29.81,SE,124,6.0,11.0,30,0.00,,,0.00,Wunderground v.1.15,2013-04-14 21:38:00,
2013-04-14 17:39:00,73.8,40.4,29.81,ESE,116,6.0,11.0,30,0.00,,,0.00,Wunderground v.1.15,2013-04-14 21:39:00,
2013-04-14 17:42:00,74.0,40.6,29.81,SSE,147,5.0,7.0,30,0.00,,,0.00,Wunderground v.1.15,2013-04-14 21:42:00,
2013-04-14 17:45:00,74.0,40.6,29.80,ESE,119,4.0,10.0,30,0.00,,,0.00,Wunderground v.1.15,2013-04-14 21:45:00,
2013-04-14 17:48:00,73.8,39.5,29.80,ESE,112,5.0,10.0,29,0.00,,,0.00,Wunderground v.1.15,2013-04-14 21:48:00,
2013-04-14 17:49:00,73.8,41.3,29.80,SSE,167,5.0,10.0,31,0.00,,,0.00,Wunderground v.1.15,2013-04-14 21:49:00,
2013-04-14 17:50:00,73.8,41.3,29.80,SE,144,5.0,5.0,31,0.00,,,0.00,Wunderground v.1.15,2013-04-14 21:50:00,
2013-04-14 17:52:00,73.8,40.4,29.80,ESE,112,6.0,8.0,30,0.00,,,0.00,Wunderground v.1.15,2013-04-14 21:52:00,
2013-04-14 17:55:00,73.7,39.5,29.80,ESE,114,6.0,8.0,29,0.00,,,0.00,Wunderground v.1.15,2013-04-14 21:55:00,
2013-04-14 17:57:00,73.7,40.3,29.80,ESE,114,6.0,10.0,30,0.00,,,0.00,Wunderground v.1.15,2013-04-14 21:57:00,
2013-04-14 17:59:00,73.7,40.3,29.80,ESE,121,6.0,10.0,30,0.00,,,0.00,Wunderground v.1.15,2013-04-14 21:59:00,
2013-04-14 18:00:00,73.7,42.0,29.80,ESE,107,6.0,7.0,32,0.00,,,0.00,Wunderground v.1.15,2013-04-14 22:00:00,
2013-04-14 18:03:00,73.7,40.3,29.80,SE,143,5.0,7.0,30,0.00,,,0.00,Wunderground v.1.15,2013-04-14 22:03:00,
2013-04-14 18:05:00,73.8,40.4,29.80,SE,127,5.0,7.0,30,0.00,,,0.00,Wunderground v.1.15,2013-04-14 22:05:00,
2013-04-14 18:06:00,73.8,40.4,29.80,SE,131,5.0,7.0,30,0.00,,,0.00,Wunderground v.1.15,2013-04-14 22:06:00,
2013-04-14 18:07:00,73.8,40.4,29.80,ESE,121,5.0,7.0,30,0.00,,,0.00,Wunderground v.1.15,2013-04-14 22:07:00,
2013-04-14 18:08:00,73.8,40.4,29.80,SE,137,5.0,7.0,30,0.00,,,0.00,Wunderground v.1.15,2013-04-14 22:08:00,
2013-04-14 18:12:00,73.8,40.4,29.80,SE,124,6.0,7.0,30,0.00,,,0.00,Wunderground v.1.15,2013-04-14 22:12:00,
2013-04-14 18:14:00,73.7,41.2,29.80,SSE,154,6.0,7.0,31,0.00,,,0.00,Wunderground v.1.15,2013-04-14 22:14:00,
2013-04-14 18:16:00,73.7,41.2,29.80,SE,131,6.0,7.0,31,0.00,,,0.00,Wunderground v.1.15,2013-04-14 22:16:00,
2013-04-14 18:17:00,73.7,41.2,29.80,ESE,116,6.0,9.0,31,0.00,,,0.00,Wunderground v.1.15,2013-04-14 22:17:00,
2013-04-14 18:18:00,73.7,41.2,29.80,ESE,113,6.0,9.0,31,0.00,,,0.00,Wunderground v.1.15,2013-04-14 22:18:00,
2013-04-14 18:22:00,73.7,42.0,29.80,SE,131,5.0,6.0,32,0.00,,,0.00,Wunderground v.1.15,2013-04-14 22:22:00,
2013-04-14 18:24:00,73.7,42.8,29.80,SE,126,5.0,6.0,33,0.00,,,0.00,Wunderground v.1.15,2013-04-14 22:24:00,
2013-04-14 18:27:00,73.5,41.8,29.80,ESE,121,4.0,6.0,32,0.00,,,0.00,Wunderground v.1.15,2013-04-14 22:27:00,
2013-04-14 18:29:00,73.7,42.8,29.80,SE,130,3.0,7.0,33,0.00,,,0.00,Wunderground v.1.15,2013-04-14 22:29:00,
2013-04-14 18:30:00,73.7,42.0,29.80,ESE,110,3.0,7.0,32,0.00,,,0.00,Wunderground v.1.15,2013-04-14 22:30:00,
2013-04-14 18:32:00,73.7,42.0,29.80,SSE,161,4.0,7.0,32,0.00,,,0.00,Wunderground v.1.15,2013-04-14 22:32:00,
2013-04-14 18:33:00,73.7,41.2,29.80,SSE,161,5.0,7.0,31,0.00,,,0.00,Wunderground v.1.15,2013-04-14 22:33:00,
2013-04-14 18:34:00,73.7,42.0,29.80,ESE,103,5.0,8.0,32,0.00,,,0.00,Wunderground v.1.15,2013-04-14 22:34:00,
2013-04-14 18:39:00,73.5,41.0,29.80,SSE,148,6.0,10.0,31,0.00,,,0.00,Wunderground v.1.15,2013-04-14 22:39:00,
2013-04-14 18:40:00,73.5,41.0,29.80,ESE,107,6.0,8.0,31,0.00,,,0.00,Wunderground v.1.15,2013-04-14 22:40:00,
2013-04-14 18:43:00,73.3,40.8,29.80,ESE,119,7.0,8.0,31,0.00,,,0.00,Wunderground v.1.15,2013-04-14 22:43:00,
2013-04-14 18:44:00,73.3,41.6,29.80,ESE,120,7.0,8.0,32,0.00,,,0.00,Wunderground v.1.15,2013-04-14 22:44:00,
2013-04-14 18:49:00,73.3,42.4,29.80,ESE,123,6.0,8.0,33,0.00,,,0.00,Wunderground v.1.15,2013-04-14 22:49:00,
2013-04-14 18:50:00,73.3,42.4,29.80,SE,131,6.0,6.0,33,0.00,,,0.00,Wunderground v.1.15,2013-04-14 22:50:00,
2013-04-14 18:51:00,73.3,43.2,29.80,ESE,120,6.0,6.0,34,0.00,,,0.00,Wunderground v.1.15,2013-04-14 22:51:00,
2013-04-14 18:53:00,73.3,42.4,29.80,SE,143,5.0,6.0,33,0.00,,,0.00,Wunderground v.1.15,2013-04-14 22:53:00,
2013-04-14 18:58:00,73.2,43.1,29.80,SSE,148,3.0,6.0,34,0.00,,,0.00,Wunderground v.1.15,2013-04-14 22:58:00,
2013-04-14 18:59:00,73.2,43.1,29.80,SSE,148,3.0,6.0,34,0.00,,,0.00,Wunderground v.1.15,2013-04-14 22:59:00,
2013-04-14 19:00:00,73.2,43.9,29.81,SE,126,2.0,2.0,35,0.00,,,0.00,Wunderground v.1.15,2013-04-14 23:00:00,
2013-04-14 19:02:00,73.2,43.9,29.81,SSW,198,1.0,2.0,35,0.00,,,0.00,Wunderground v.1.15,2013-04-14 23:02:00,
2013-04-14 19:04:00,73.2,43.9,29.81,South,179,1.0,2.0,35,0.00,,,0.00,Wunderground v.1.15,2013-04-14 23:04:00,
2013-04-14 19:05:00,73.2,43.9,29.81,SE,126,1.0,7.0,35,0.00,,,0.00,Wunderground v.1.15,2013-04-14 23:05:00,
2013-04-14 19:09:00,73.3,41.6,29.81,SSE,168,2.0,7.0,32,0.00,,,0.00,Wunderground v.1.15,2013-04-14 23:09:00,
2013-04-14 19:10:00,73.5,41.8,29.81,SSE,157,2.0,2.0,32,0.00,,,0.00,Wunderground v.1.15,2013-04-14 23:10:00,
2013-04-14 19:13:00,73.7,41.2,29.81,SSE,154,2.0,2.0,31,0.00,,,0.00,Wunderground v.1.15,2013-04-14 23:13:00,
2013-04-14 19:15:00,73.7,40.3,29.81,SE,141,2.0,4.0,30,0.00,,,0.00,Wunderground v.1.15,2013-04-14 23:15:00,
2013-04-14 19:18:00,73.8,40.4,29.81,SSW,193,2.0,4.0,30,0.00,,,0.00,Wunderground v.1.15,2013-04-14 23:18:00,
2013-04-14 19:19:00,73.8,41.3,29.81,SE,137,1.0,4.0,31,0.00,,,0.00,Wunderground v.1.15,2013-04-14 23:19:00,
2013-04-14 19:24:00,73.8,40.4,29.81,South,186,3.0,5.0,30,0.00,,,0.00,Wunderground v.1.15,2013-04-14 23:24:00,
2013-04-14 19:25:00,73.8,40.4,29.81,ESE,119,3.0,5.0,30,0.00,,,0.00,Wunderground v.1.15,2013-04-14 23:25:00,
2013-04-14 19:26:00,73.8,40.4,29.81,South,175,4.0,5.0,30,0.00,,,0.00,Wunderground v.1.15,2013-04-14 23:26:00,
2013-04-14 19:29:00,73.8,40.4,29.81,South,176,5.0,7.0,30,0.00,,,0.00,Wunderground v.1.15,2013-04-14 23:29:00,
2013-04-14 19:31:00,73.7,40.3,29.81,South,175,5.0,5.0,30,0.00,,,0.00,Wunderground v.1.15,2013-04-14 23:31:00,
2013-04-14 19:33:00,73.7,41.2,29.81,SSE,161,4.0,6.0,31,0.00,,,0.00,Wunderground v.1.15,2013-04-14 23:33:00,
2013-04-14 19:35:00,73.7,41.2,29.81,SSW,193,4.0,7.0,31,0.00,,,0.00,Wunderground v.1.15,2013-04-14 23:35:00,
2013-04-14 19:38:00,73.5,41.0,29.81,SSE,155,4.0,7.0,31,0.00,,,0.00,Wunderground v.1.15,2013-04-14 23:38:00,
2013-04-14 19:40:00,73.3,40.8,29.81,South,189,4.0,4.0,31,0.00,,,0.00,Wunderground v.1.15,2013-04-14 23:40:00,
2013-04-14 19:41:00,73.3,41.6,29.81,WSW,243,3.0,4.0,32,0.00,,,0.00,Wunderground v.1.15,2013-04-14 23:41:00,
2013-04-14 19:45:00,73.0,41.4,29.81,SSW,200,3.0,8.0,32,0.00,,,0.00,Wunderground v.1.15,2013-04-14 23:45:00,
2013-04-14 19:48:00,72.8,41.2,29.81,South,182,3.0,8.0,32,0.00,,,0.00,Wunderground v.1.15,2013-04-14 23:48:00,
2013-04-14 19:49:00,72.8,41.2,29.81,SE,136,3.0,8.0,32,0.00,,,0.00,Wunderground v.1.15,2013-04-14 23:49:00,
2013-04-14 19:51:00,72.6,40.2,29.81,SSE,155,4.0,5.0,31,0.00,,,0.00,Wunderground v.1.15,2013-04-14 23:51:00,
2013-04-14 19:54:00,72.5,41.0,29.81,South,185,4.0,11.0,32,0.00,,,0.00,Wunderground v.1.15,2013-04-14 23:54:00,
2013-04-14 19:55:00,72.5,41.0,29.81,SSW,208,5.0,11.0,32,0.00,,,0.00,Wunderground v.1.15,2013-04-14 23:55:00,
2013-04-14 19:56:00,72.3,40.8,29.81,SSE,155,4.0,11.0,32,0.00,,,0.00,Wunderground v.1.15,2013-04-14 23:56:00,
2013-04-14 19:58:00,72.1,40.6,29.81,South,184,4.0,11.0,32,0.00,,,0.00,Wunderground v.1.15,2013-04-14 23:58:00,
2013-04-14 20:00:00,72.1,41.4,29.81,South,185,4.0,4.0,33,0.00,,,0.00,Wunderground v.1.15,2013-04-15 00:00:00,
2013-04-14 20:04:00,71.8,41.1,29.81,SSE,158,4.0,5.0,33,0.00,,,0.00,Wunderground v.1.15,2013-04-15 00:04:00,
2013-04-14 20:06:00,71.8,41.1,29.81,SE,133,3.0,6.0,33,0.00,,,0.00,Wunderground v.1.15,2013-04-15 00:06:00,
2013-04-14 20:09:00,71.6,41.0,29.81,South,181,3.0,6.0,33,0.00,,,0.00,Wunderground v.1.15,2013-04-15 00:09:00,
2013-04-14 20:10:00,71.4,40.8,29.81,SSE,168,3.0,3.0,33,0.00,,,0.00,Wunderground v.1.15,2013-04-15 00:10:00,
2013-04-14 20:14:00,71.3,41.5,29.81,South,171,3.0,6.0,34,0.00,,,0.00,Wunderground v.1.15,2013-04-15 00:14:00,
2013-04-14 20:15:00,71.3,41.5,29.81,South,174,3.0,6.0,34,0.00,,,0.00,Wunderground v.1.15,2013-04-15 00:15:00,
2013-04-14 20:16:00,71.1,41.3,29.81,South,174,3.0,6.0,34,0.00,,,0.00,Wunderground v.1.15,2013-04-15 00:16:00,
2013-04-14 20:19:00,71.1,41.3,29.81,SSE,167,3.0,7.0,34,0.00,,,0.00,Wunderground v.1.15,2013-04-15 00:19:00,
2013-04-14 20:21:00,71.1,41.3,29.81,South,185,3.0,3.0,34,0.00,,,0.00,Wunderground v.1.15,2013-04-15 00:21:00,
2013-04-14 20:22:00,70.9,41.1,29.81,South,185,3.0,3.0,34,0.00,,,0.00,Wunderground v.1.15,2013-04-15 00:22:00,
2013-04-14 20:26:00,70.8,41.0,29.81,SSW,202,4.0,7.0,34,0.00,,,0.00,Wunderground v.1.15,2013-04-15 00:26:00,
2013-04-14 20:27:00,70.8,41.8,29.81,SSE,162,4.0,7.0,35,0.00,,,0.00,Wunderground v.1.15,2013-04-15 00:27:00,
2013-04-14 20:28:00,70.6,40.9,29.81,SSE,162,4.0,7.0,34,0.00,,,0.00,Wunderground v.1.15,2013-04-15 00:28:00,
2013-04-14 20:32:00,70.3,41.3,29.81,South,191,2.0,3.0,35,0.00,,,0.00,Wunderground v.1.15,2013-04-15 00:32:00,
2013-04-14 20:34:00,70.3,41.3,29.81,South,189,2.0,7.0,35,0.00,,,0.00,Wunderground v.1.15,2013-04-15 00:34:00,
2013-04-14 20:35:00,70.1,41.2,29.81,South,185,2.0,7.0,35,0.00,,,0.00,Wunderground v.1.15,2013-04-15 00:35:00,
2013-04-14 20:38:00,70.1,41.9,29.81,South,181,2.0,16.0,36,0.00,,,0.00,Wunderground v.1.15,2013-04-15 00:38:00,
2013-04-14 20:39:00,69.9,41.7,29.81,SSW,205,2.0,16.0,36,0.00,,,0.00,Wunderground v.1.15,2013-04-15 00:39:00,
2013-04-14 20:42:00,69.9,41.7,29.81,South,179,3.0,8.0,36,0.00,,,0.00,Wunderground v.1.15,2013-04-15 00:42:00,
2013-04-14 20:43:00,69.9,42.4,29.81,South,181,3.0,8.0,37,0.00,,,0.00,Wunderground v.1.15,2013-04-15 00:43:00,
2013-04-14 20:44:00,69.8,42.3,29.81,SSW,203,3.0,8.0,37,0.00,,,0.00,Wunderground v.1.15,2013-04-15 00:44:00,
2013-04-14 20:47:00,69.6,42.2,29.81,SSE,148,3.0,8.0,37,0.00,,,0.00,Wunderground v.1.15,2013-04-15 00:47:00,
2013-04-14 20:49:00,69.6,42.2,29.81,South,188,3.0,8.0,37,0.00,,,0.00,Wunderground v.1.15,2013-04-15 00:49:00,
2013-04-14 20:52:00,69.3,41.9,29.81,South,184,1.0,2.0,37,0.00,,,0.00,Wunderground v.1.15,2013-04-15 00:52:00,
2013-04-14 20:53:00,69.3,41.9,29.81,South,184,1.0,2.0,37,0.00,,,0.00,Wunderground v.1.15,2013-04-15 00:53:00,
2013-04-14 20:54:00,69.1,41.7,29.81,South,184,1.0,2.0,37,0.00,,,0.00,Wunderground v.1.15,2013-04-15 00:54:00,
2013-04-14 20:56:00,68.9,41.5,29.81,SSE,167,1.0,2.0,37,0.00,,,0.00,Wunderground v.1.15,2013-04-15 00:56:00,
2013-04-14 20:59:00,68.9,42.2,29.81,SSE,152,1.0,2.0,38,0.00,,,0.00,Wunderground v.1.15,2013-04-15 00:59:00,
2013-04-14 21:00:00,68.9,42.2,29.82,SE,131,1.0,2.0,38,0.00,,,0.00,Wunderground v.1.15,2013-04-15 01:00:00,
2013-04-14 21:03:00,68.8,42.1,29.82,South,174,1.0,2.0,38,0.00,,,0.00,Wunderground v.1.15,2013-04-15 01:03:00,
2013-04-14 21:05:00,68.8,42.1,29.82,SSE,167,1.0,2.0,38,0.00,,,0.00,Wunderground v.1.15,2013-04-15 01:05:00,
2013-04-14 21:06:00,68.8,42.1,29.82,SE,137,1.0,2.0,38,0.00,,,0.00,Wunderground v.1.15,2013-04-15 01:06:00,
2013-04-14 21:08:00,68.6,42.6,29.82,SW,222,1.0,2.0,39,0.00,,,0.00,Wunderground v.1.15,2013-04-15 01:08:00,
2013-04-14 21:09:00,68.6,42.6,29.82,South,185,1.0,2.0,39,0.00,,,0.00,Wunderground v.1.15,2013-04-15 01:09:00,
2013-04-14 21:11:00,68.4,42.5,29.82,South,189,1.0,2.0,39,0.00,,,0.00,Wunderground v.1.15,2013-04-15 01:11:00,
2013-04-14 21:14:00,68.3,42.4,29.82,South,185,1.0,2.0,39,0.00,,,0.00,Wunderground v.1.15,2013-04-15 01:14:00,
2013-04-14 21:17:00,67.9,42.0,29.82,South,185,1.0,2.0,39,0.00,,,0.00,Wunderground v.1.15,2013-04-15 01:17:00,
2013-04-14 21:18:00,67.9,42.0,29.82,SE,134,1.0,2.0,39,0.00,,,0.00,Wunderground v.1.15,2013-04-15 01:18:00,
2013-04-14 21:19:00,67.9,42.0,29.82,South,171,1.0,2.0,39,0.00,,,0.00,Wunderground v.1.15,2013-04-15 01:19:00,
2013-04-14 21:20:00,67.9,42.0,29.82,SSE,152,1.0,4.0,39,0.00,,,0.00,Wunderground v.1.15,2013-04-15 01:20:00,
2013-04-14 21:26:00,67.6,42.4,29.82,SSE,152,1.0,4.0,40,0.00,,,0.00,Wunderground v.1.15,2013-04-15 01:26:00,
2013-04-14 21:27:00,67.6,42.4,29.82,SSE,168,1.0,4.0,40,0.00,,,0.00,Wunderground v.1.15,2013-04-15 01:27:00,
2013-04-14 21:28:00,67.6,42.4,29.82,SSE,168,1.0,4.0,40,0.00,,,0.00,Wunderground v.1.15,2013-04-15 01:28:00,
2013-04-14 21:33:00,67.6,42.4,29.83,South,186,1.0,10.0,40,0.00,,,0.00,Wunderground v.1.15,2013-04-15 01:33:00,
2013-04-14 21:34:00,67.6,41.7,29.83,SSW,200,1.0,10.0,39,0.00,,,0.00,Wunderground v.1.15,2013-04-15 01:34:00,
2013-04-14 21:36:00,67.6,41.7,29.83,SSE,164,2.0,11.0,39,0.00,,,0.00,Wunderground v.1.15,2013-04-15 01:36:00,
2013-04-14 21:39:00,67.8,41.3,29.83,SSE,167,4.0,12.0,38,0.00,,,0.00,Wunderground v.1.15,2013-04-15 01:39:00,
2013-04-14 21:41:00,67.8,41.9,29.83,SE,131,5.0,6.0,39,0.00,,,0.00,Wunderground v.1.15,2013-04-15 01:41:00,
2013-04-14 21:42:00,67.8,41.3,29.83,SSW,202,4.0,6.0,38,0.00,,,0.00,Wunderground v.1.15,2013-04-15 01:42:00,
2013-04-14 21:43:00,67.9,41.3,29.83,SW,219,5.0,6.0,38,0.00,,,0.00,Wunderground v.1.15,2013-04-15 01:43:00,
2013-04-14 21:48:00,67.8,41.3,29.84,South,169,5.0,6.0,38,0.00,,,0.00,Wunderground v.1.15,2013-04-15 01:48:00,
2013-04-14 21:49:00,67.8,41.9,29.84,South,178,5.0,6.0,39,0.00,,,0.00,Wunderground v.1.15,2013-04-15 01:49:00,
2013-04-14 21:54:00,67.8,41.9,29.84,SSE,155,6.0,7.0,39,0.00,,,0.00,Wunderground v.1.15,2013-04-15 01:54:00,
2013-04-14 21:55:00,67.8,41.9,29.84,South,191,6.0,7.0,39,0.00,,,0.00,Wunderground v.1.15,2013-04-15 01:55:00,
2013-04-14 21:59:00,67.6,42.4,29.84,SSW,210,7.0,13.0,40,0.00,,,0.00,Wunderground v.1.15,2013-04-15 01:59:00,
2013-04-14 22:00:00,67.6,42.4,29.85,South,188,7.0,7.0,40,0.00,,,0.00,Wunderground v.1.15,2013-04-15 02:00:00,
2013-04-14 22:01:00,67.6,42.4,29.85,South,188,7.0,7.0,40,0.00,,,0.00,Wunderground v.1.15,2013-04-15 02:01:00,
2013-04-14 22:03:00,67.3,42.1,29.85,SE,143,6.0,7.0,40,0.00,,,0.00,Wunderground v.1.15,2013-04-15 02:03:00,
2013-04-14 22:05:00,67.1,42.6,29.85,SSE,151,5.0,7.0,41,0.00,,,0.00,Wunderground v.1.15,2013-04-15 02:05:00,
2013-04-14 22:06:00,66.9,42.4,29.85,SSE,162,5.0,7.0,41,0.00,,,0.00,Wunderground v.1.15,2013-04-15 02:06:00,
2013-04-14 22:07:00,66.9,42.4,29.85,SSW,202,4.0,7.0,41,0.00,,,0.00,Wunderground v.1.15,2013-04-15 02:07:00,
2013-04-14 22:09:00,66.8,43.0,29.85,SSW,202,3.0,7.0,42,0.00,,,0.00,Wunderground v.1.15,2013-04-15 02:09:00,
2013-04-14 22:11:00,66.6,42.8,29.85,South,185,3.0,6.0,42,0.00,,,0.00,Wunderground v.1.15,2013-04-15 02:11:00,
2013-04-14 22:12:00,66.5,42.7,29.85,South,185,4.0,7.0,42,0.00,,,0.00,Wunderground v.1.15,2013-04-15 02:12:00,
2013-04-14 22:15:00,66.3,43.1,29.85,SSW,205,4.0,7.0,43,0.00,,,0.00,Wunderground v.1.15,2013-04-15 02:15:00,
2013-04-14 22:18:00,66.1,42.9,29.85,SSE,168,4.0,7.0,43,0.00,,,0.00,Wunderground v.1.15,2013-04-15 02:18:00,
2013-04-14 22:20:00,66.1,42.9,29.85,SSE,164,4.0,4.0,43,0.00,,,0.00,Wunderground v.1.15,2013-04-15 02:20:00,
2013-04-14 22:21:00,66.0,42.9,29.85,SSE,165,3.0,4.0,43,0.00,,,0.00,Wunderground v.1.15,2013-04-15 02:21:00,
2013-04-14 22:23:00,66.0,42.9,29.85,SSW,212,3.0,7.0,43,0.00,,,0.00,Wunderground v.1.15,2013-04-15 02:23:00,
2013-04-14 22:24:00,66.0,42.9,29.85,SSE,148,3.0,7.0,43,0.00,,,0.00,Wunderground v.1.15,2013-04-15 02:24:00,
2013-04-14 22:26:00,65.8,42.7,29.85,South,179,4.0,7.0,43,0.00,,,0.00,Wunderground v.1.15,2013-04-15 02:26:00,
2013-04-14 22:27:00,65.8,43.3,29.85,SSW,203,3.0,10.0,44,0.00,,,0.00,Wunderground v.1.15,2013-04-15 02:27:00,
2013-04-14 22:29:00,65.7,43.2,29.85,SSE,167,3.0,10.0,44,0.00,,,0.00,Wunderground v.1.15,2013-04-15 02:29:00,
2013-04-14 22:31:00,65.7,43.2,29.85,South,188,4.0,4.0,44,0.00,,,0.00,Wunderground v.1.15,2013-04-15 02:31:00,
2013-04-14 22:33:00,65.5,43.6,29.85,South,176,4.0,8.0,45,0.00,,,0.00,Wunderground v.1.15,2013-04-15 02:33:00,
2013-04-14 22:34:00,65.3,43.4,29.85,SE,131,4.0,8.0,45,0.00,,,0.00,Wunderground v.1.15,2013-04-15 02:34:00,
2013-04-14 22:36:00,65.2,43.9,29.85,SSE,152,4.0,8.0,46,0.00,,,0.00,Wunderground v.1.15,2013-04-15 02:36:00,
2013-04-14 22:39:00,64.8,43.5,29.85,SSW,198,4.0,8.0,46,0.00,,,0.00,Wunderground v.1.15,2013-04-15 02:39:00,
2013-04-14 22:42:00,64.7,44.0,29.85,SW,223,4.0,13.0,47,0.00,,,0.00,Wunderground v.1.15,2013-04-15 02:42:00,
2013-04-14 22:43:00,64.7,44.0,29.85,SSE,152,4.0,13.0,47,0.00,,,0.00,Wunderground v.1.15,2013-04-15 02:43:00,
2013-04-14 22:44:00,64.7,44.0,29.85,SSE,167,4.0,13.0,47,0.00,,,0.00,Wunderground v.1.15,2013-04-15 02:44:00,
2013-04-14 22:47:00,64.7,44.0,29.86,SSW,203,5.0,13.0,47,0.00,,,0.00,Wunderground v.1.15,2013-04-15 02:47:00,
2013-04-14 22:49:00,64.5,43.8,29.86,South,175,6.0,13.0,47,0.00,,,0.00,Wunderground v.1.15,2013-04-15 02:49:00,
2013-04-14 22:50:00,64.5,43.8,29.86,SSW,198,6.0,6.0,47,0.00,,,0.00,Wunderground v.1.15,2013-04-15 02:50:00,
2013-04-14 22:52:00,64.4,44.3,29.86,SSW,209,6.0,6.0,48,0.00,,,0.00,Wunderground v.1.15,2013-04-15 02:52:00,
2013-04-14 22:55:00,64.2,44.1,29.86,SE,128,5.0,8.0,48,0.00,,,0.00,Wunderground v.1.15,2013-04-15 02:55:00,
2013-04-14 22:58:00,64.2,44.1,29.86,SSE,161,5.0,8.0,48,0.00,,,0.00,Wunderground v.1.15,2013-04-15 02:58:00,
2013-04-14 22:59:00,64.2,44.1,29.86,SSW,208,4.0,8.0,48,0.00,,,0.00,Wunderground v.1.15,2013-04-15 02:59:00,
2013-04-14 23:00:00,64.0,44.4,29.86,ESE,123,4.0,6.0,49,0.00,,,0.00,Wunderground v.1.15,2013-04-15 03:00:00,
2013-04-14 23:04:00,63.9,44.4,29.86,South,182,4.0,6.0,49,0.00,,,0.00,Wunderground v.1.15,2013-04-15 03:04:00,
2013-04-14 23:05:00,63.9,44.4,29.86,SSW,192,4.0,6.0,49,0.00,,,0.00,Wunderground v.1.15,2013-04-15 03:05:00,
2013-04-14 23:08:00,63.7,44.2,29.86,SSE,168,4.0,8.0,49,0.00,,,0.00,Wunderground v.1.15,2013-04-15 03:08:00,
2013-04-14 23:09:00,63.7,44.2,29.86,SSW,192,4.0,8.0,49,0.00,,,0.00,Wunderground v.1.15,2013-04-15 03:09:00,
2013-04-14 23:11:00,63.6,44.6,29.86,South,191,4.0,4.0,50,0.00,,,0.00,Wunderground v.1.15,2013-04-15 03:11:00,
2013-04-14 23:14:00,63.6,44.6,29.86,SE,143,3.0,4.0,50,0.00,,,0.00,Wunderground v.1.15,2013-04-15 03:14:00,
2013-04-14 23:17:00,63.4,44.4,29.86,SSE,162,3.0,4.0,50,0.00,,,0.00,Wunderground v.1.15,2013-04-15 03:17:00,
2013-04-14 23:18:00,63.4,44.4,29.86,SSE,162,3.0,4.0,50,0.00,,,0.00,Wunderground v.1.15,2013-04-15 03:18:00,
2013-04-14 23:21:00,63.2,44.8,29.86,South,181,3.0,5.0,51,0.00,,,0.00,Wunderground v.1.15,2013-04-15 03:21:00,
2013-04-14 23:22:00,63.1,44.7,29.86,SE,145,3.0,5.0,51,0.00,,,0.00,Wunderground v.1.15,2013-04-15 03:22:00,
2013-04-14 23:23:00,63.1,44.7,29.86,South,191,3.0,6.0,51,0.00,,,0.00,Wunderground v.1.15,2013-04-15 03:23:00,
2013-04-14 23:25:00,62.9,45.0,29.86,South,179,3.0,8.0,52,0.00,,,0.00,Wunderground v.1.15,2013-04-15 03:25:00,
2013-04-14 23:28:00,63.1,45.2,29.86,SSE,158,3.0,8.0,52,0.00,,,0.00,Wunderground v.1.15,2013-04-15 03:28:00,
2013-04-14 23:30:00,63.1,45.2,29.86,SSE,158,4.0,4.0,52,0.00,,,0.00,Wunderground v.1.15,2013-04-15 03:30:00,
2013-04-14 23:31:00,62.9,45.0,29.86,SE,143,4.0,4.0,52,0.00,,,0.00,Wunderground v.1.15,2013-04-15 03:31:00,
2013-04-14 23:35:00,62.6,45.2,29.86,ESE,121,3.0,5.0,53,0.00,,,0.00,Wunderground v.1.15,2013-04-15 03:35:00,
2013-04-14 23:36:00,62.6,45.2,29.86,SSE,147,3.0,5.0,53,0.00,,,0.00,Wunderground v.1.15,2013-04-15 03:36:00,
2013-04-14 23:40:00,62.6,45.2,29.86,SSE,150,3.0,5.0,53,0.00,,,0.00,Wunderground v.1.15,2013-04-15 03:40:00,
2013-04-14 23:41:00,62.6,45.2,29.86,South,171,3.0,5.0,53,0.00,,,0.00,Wunderground v.1.15,2013-04-15 03:41:00,
2013-04-14 23:43:00,62.5,45.6,29.86,SSE,148,3.0,5.0,54,0.00,,,0.00,Wunderground v.1.15,2013-04-15 03:43:00,
2013-04-14 23:47:00,62.3,45.4,29.85,SE,126,4.0,6.0,54,0.00,,,0.00,Wunderground v.1.15,2013-04-15 03:47:00,
2013-04-14 23:49:00,62.1,45.2,29.85,SSE,150,3.0,6.0,54,0.00,,,0.00,Wunderground v.1.15,2013-04-15 03:49:00,
2013-04-14 23:51:00,62.0,45.2,29.85,SSE,152,3.0,3.0,54,0.00,,,0.00,Wunderground v.1.15,2013-04-15 03:51:00,
2013-04-14 23:52:00,62.0,45.6,29.85,SSE,157,3.0,3.0,55,0.00,,,0.00,Wunderground v.1.15,2013-04-15 03:52:00,
2013-04-14 23:53:00,62.0,45.6,29.85,South,172,3.0,3.0,55,0.00,,,0.00,Wunderground v.1.15,2013-04-15 03:53:00,
2013-04-14 23:57:00,61.8,45.5,29.85,South,169,2.0,5.0,55,0.00,,,0.00,Wunderground v.1.15,2013-04-15 03:57:00,